<?xml version="1.0" encoding="UTF-8" standalone="no" ?>
<gpx xmlns="http://www.topografix.com/GPX/1/1" xmlns:xsi="http://www.w3.org/2001/XMLSchema-instance" xsi:schemaLocation="http://www.topografix.com/GPX/1/1 http://www.topografix.com/GPX/1/1/gpx.xsd" version="1.1" creator="VisuGPX - https://www.visugpx.com">
  <metadata>
    <name>Bois-de-Meridon-Petits-Ponts-4</name>
    <desc><![CDATA[Petite boucle autour de la retenue de l'Yvette, montée au bois de Méridon, fontaine Saint Paul, château de Breteuil, château de Méridon et retour par la promenade des petits ponts.]]></desc>
  </metadata>
  <trk>
    <name><![CDATA[2026-02-05 09:01]]></name>
    <desc><![CDATA[<p>Heure de départ: 09:01 5 févr. 2026<br/>Heure d'arrivée: 11:45 5 févr. 2026<br/>Distance: 13,3 km (02:44)<br/>Temps déplacement: 02:35<br/>Vitesse moyenne: 4,87 km/h<br/>Vitesse moyenne mouv.: 5,14 km/h<br/>Vitesse Max.: 7,52 km/h<br/>Altitude minimale: 63 m<br/>Altitude maximale: 173 m<br/>Vitesse de montée: 214,5 m/h<br/>Vitesse de descente: -218,5 m/h<br/>Gain d'altitude: 292 m<br/>Perte d'altitude: -293 m<br/>Temps de montée: 01:21<br/>Temps de descente: 01:20<br/></p><hr align="center" width="480" style="height: 2px; width: 517px"/>]]></desc>
    <trkseg>
      <trkpt lat="48.706" lon="2.04152">
        <ele>78.3</ele>
        <time>2026-02-05T08:01:16Z</time>
      </trkpt>
      <trkpt lat="48.706" lon="2.04137">
        <ele>78.6</ele>
        <time>2026-02-05T08:01:49Z</time>
      </trkpt>
      <trkpt lat="48.70592" lon="2.04128">
        <ele>78.6</ele>
        <time>2026-02-05T08:01:58Z</time>
      </trkpt>
      <trkpt lat="48.70588" lon="2.04115">
        <ele>78.9</ele>
        <time>2026-02-05T08:02:09Z</time>
      </trkpt>
      <trkpt lat="48.70585" lon="2.04101">
        <ele>79</ele>
        <time>2026-02-05T08:02:18Z</time>
      </trkpt>
      <trkpt lat="48.70583" lon="2.04087">
        <ele>79</ele>
        <time>2026-02-05T08:02:26Z</time>
      </trkpt>
      <trkpt lat="48.70582" lon="2.04073">
        <ele>78.9</ele>
        <time>2026-02-05T08:02:34Z</time>
      </trkpt>
      <trkpt lat="48.70583" lon="2.04059">
        <ele>79</ele>
        <time>2026-02-05T08:02:42Z</time>
      </trkpt>
      <trkpt lat="48.70588" lon="2.04047">
        <ele>79</ele>
        <time>2026-02-05T08:02:50Z</time>
      </trkpt>
      <trkpt lat="48.70593" lon="2.04035">
        <ele>79</ele>
        <time>2026-02-05T08:02:57Z</time>
      </trkpt>
      <trkpt lat="48.70599" lon="2.04024">
        <ele>79</ele>
        <time>2026-02-05T08:03:05Z</time>
      </trkpt>
      <trkpt lat="48.70604" lon="2.04011">
        <ele>79</ele>
        <time>2026-02-05T08:03:13Z</time>
      </trkpt>
      <trkpt lat="48.70605" lon="2.03995">
        <ele>79</ele>
        <time>2026-02-05T08:03:22Z</time>
      </trkpt>
      <trkpt lat="48.70605" lon="2.0398">
        <ele>79</ele>
        <time>2026-02-05T08:03:29Z</time>
      </trkpt>
      <trkpt lat="48.70609" lon="2.03968">
        <ele>79</ele>
        <time>2026-02-05T08:03:36Z</time>
      </trkpt>
      <trkpt lat="48.70618" lon="2.03962">
        <ele>79</ele>
        <time>2026-02-05T08:03:47Z</time>
      </trkpt>
      <trkpt lat="48.70624" lon="2.0395">
        <ele>79</ele>
        <time>2026-02-05T08:03:54Z</time>
      </trkpt>
      <trkpt lat="48.7063" lon="2.03938">
        <ele>79</ele>
        <time>2026-02-05T08:04:01Z</time>
      </trkpt>
      <trkpt lat="48.70624" lon="2.03925">
        <ele>79</ele>
        <time>2026-02-05T08:04:12Z</time>
      </trkpt>
      <trkpt lat="48.70617" lon="2.03916">
        <ele>79</ele>
        <time>2026-02-05T08:04:19Z</time>
      </trkpt>
      <trkpt lat="48.7061" lon="2.03907">
        <ele>79</ele>
        <time>2026-02-05T08:04:25Z</time>
      </trkpt>
      <trkpt lat="48.70602" lon="2.03899">
        <ele>79</ele>
        <time>2026-02-05T08:04:32Z</time>
      </trkpt>
      <trkpt lat="48.70595" lon="2.03888">
        <ele>79</ele>
        <time>2026-02-05T08:04:39Z</time>
      </trkpt>
      <trkpt lat="48.70588" lon="2.0388">
        <ele>79</ele>
        <time>2026-02-05T08:04:45Z</time>
      </trkpt>
      <trkpt lat="48.70587" lon="2.03865">
        <ele>79</ele>
        <time>2026-02-05T08:04:53Z</time>
      </trkpt>
      <trkpt lat="48.70578" lon="2.03858">
        <ele>79</ele>
        <time>2026-02-05T08:04:59Z</time>
      </trkpt>
      <trkpt lat="48.70569" lon="2.0385">
        <ele>79</ele>
        <time>2026-02-05T08:05:05Z</time>
      </trkpt>
      <trkpt lat="48.70561" lon="2.03841">
        <ele>79</ele>
        <time>2026-02-05T08:05:12Z</time>
      </trkpt>
      <trkpt lat="48.70553" lon="2.03832">
        <ele>78.9</ele>
        <time>2026-02-05T08:05:19Z</time>
      </trkpt>
      <trkpt lat="48.70547" lon="2.03822">
        <ele>78.7</ele>
        <time>2026-02-05T08:05:26Z</time>
      </trkpt>
      <trkpt lat="48.70546" lon="2.03807">
        <ele>78.7</ele>
        <time>2026-02-05T08:05:33Z</time>
      </trkpt>
      <trkpt lat="48.70545" lon="2.03792">
        <ele>79</ele>
        <time>2026-02-05T08:05:40Z</time>
      </trkpt>
      <trkpt lat="48.70544" lon="2.03776">
        <ele>79.4</ele>
        <time>2026-02-05T08:05:47Z</time>
      </trkpt>
      <trkpt lat="48.70536" lon="2.03766">
        <ele>79.5</ele>
        <time>2026-02-05T08:05:57Z</time>
      </trkpt>
      <trkpt lat="48.70528" lon="2.03768">
        <ele>79.7</ele>
        <time>2026-02-05T08:06:03Z</time>
      </trkpt>
      <trkpt lat="48.70517" lon="2.0377">
        <ele>79.7</ele>
        <time>2026-02-05T08:06:10Z</time>
      </trkpt>
      <trkpt lat="48.70508" lon="2.03772">
        <ele>79.8</ele>
        <time>2026-02-05T08:06:17Z</time>
      </trkpt>
      <trkpt lat="48.70504" lon="2.03759">
        <ele>79.3</ele>
        <time>2026-02-05T08:06:26Z</time>
      </trkpt>
      <trkpt lat="48.70501" lon="2.03744">
        <ele>78.8</ele>
        <time>2026-02-05T08:06:33Z</time>
      </trkpt>
      <trkpt lat="48.70499" lon="2.0373">
        <ele>78.3</ele>
        <time>2026-02-05T08:06:41Z</time>
      </trkpt>
      <trkpt lat="48.70497" lon="2.03715">
        <ele>78.1</ele>
        <time>2026-02-05T08:06:49Z</time>
      </trkpt>
      <trkpt lat="48.70495" lon="2.03701">
        <ele>78.2</ele>
        <time>2026-02-05T08:06:56Z</time>
      </trkpt>
      <trkpt lat="48.70492" lon="2.03686">
        <ele>78.6</ele>
        <time>2026-02-05T08:07:03Z</time>
      </trkpt>
      <trkpt lat="48.70489" lon="2.03673">
        <ele>79.1</ele>
        <time>2026-02-05T08:07:09Z</time>
      </trkpt>
      <trkpt lat="48.70487" lon="2.03658">
        <ele>79.5</ele>
        <time>2026-02-05T08:07:16Z</time>
      </trkpt>
      <trkpt lat="48.70485" lon="2.03643">
        <ele>79.5</ele>
        <time>2026-02-05T08:07:23Z</time>
      </trkpt>
      <trkpt lat="48.70482" lon="2.03629">
        <ele>79.6</ele>
        <time>2026-02-05T08:07:30Z</time>
      </trkpt>
      <trkpt lat="48.70473" lon="2.03622">
        <ele>80</ele>
        <time>2026-02-05T08:07:37Z</time>
      </trkpt>
      <trkpt lat="48.70476" lon="2.03607">
        <ele>79.9</ele>
        <time>2026-02-05T08:07:46Z</time>
      </trkpt>
      <trkpt lat="48.70477" lon="2.03592">
        <ele>79.8</ele>
        <time>2026-02-05T08:07:53Z</time>
      </trkpt>
      <trkpt lat="48.70476" lon="2.03576">
        <ele>79.7</ele>
        <time>2026-02-05T08:08:00Z</time>
      </trkpt>
      <trkpt lat="48.70474" lon="2.03563">
        <ele>79.2</ele>
        <time>2026-02-05T08:08:06Z</time>
      </trkpt>
      <trkpt lat="48.70472" lon="2.03547">
        <ele>79</ele>
        <time>2026-02-05T08:08:13Z</time>
      </trkpt>
      <trkpt lat="48.70469" lon="2.03534">
        <ele>78.9</ele>
        <time>2026-02-05T08:08:19Z</time>
      </trkpt>
      <trkpt lat="48.70466" lon="2.0352">
        <ele>78.6</ele>
        <time>2026-02-05T08:08:26Z</time>
      </trkpt>
      <trkpt lat="48.70462" lon="2.03506">
        <ele>78.1</ele>
        <time>2026-02-05T08:08:33Z</time>
      </trkpt>
      <trkpt lat="48.70458" lon="2.03493">
        <ele>78.1</ele>
        <time>2026-02-05T08:08:40Z</time>
      </trkpt>
      <trkpt lat="48.70453" lon="2.0348">
        <ele>78.5</ele>
        <time>2026-02-05T08:08:47Z</time>
      </trkpt>
      <trkpt lat="48.70447" lon="2.03467">
        <ele>78.7</ele>
        <time>2026-02-05T08:08:54Z</time>
      </trkpt>
      <trkpt lat="48.70442" lon="2.03457">
        <ele>78.5</ele>
        <time>2026-02-05T08:09:00Z</time>
      </trkpt>
      <trkpt lat="48.70433" lon="2.03448">
        <ele>78.4</ele>
        <time>2026-02-05T08:09:07Z</time>
      </trkpt>
      <trkpt lat="48.70425" lon="2.03441">
        <ele>78.7</ele>
        <time>2026-02-05T08:09:14Z</time>
      </trkpt>
      <trkpt lat="48.70417" lon="2.03433">
        <ele>79</ele>
        <time>2026-02-05T08:09:21Z</time>
      </trkpt>
      <trkpt lat="48.70409" lon="2.03425">
        <ele>78.7</ele>
        <time>2026-02-05T08:09:27Z</time>
      </trkpt>
      <trkpt lat="48.70402" lon="2.03414">
        <ele>78.5</ele>
        <time>2026-02-05T08:09:34Z</time>
      </trkpt>
      <trkpt lat="48.70395" lon="2.03402">
        <ele>78.5</ele>
        <time>2026-02-05T08:09:41Z</time>
      </trkpt>
      <trkpt lat="48.7039" lon="2.0339">
        <ele>78.9</ele>
        <time>2026-02-05T08:09:47Z</time>
      </trkpt>
      <trkpt lat="48.70387" lon="2.03375">
        <ele>78.9</ele>
        <time>2026-02-05T08:09:53Z</time>
      </trkpt>
      <trkpt lat="48.70388" lon="2.0336">
        <ele>79</ele>
        <time>2026-02-05T08:09:59Z</time>
      </trkpt>
      <trkpt lat="48.70389" lon="2.03346">
        <ele>79</ele>
        <time>2026-02-05T08:10:05Z</time>
      </trkpt>
      <trkpt lat="48.70391" lon="2.03332">
        <ele>78.9</ele>
        <time>2026-02-05T08:10:12Z</time>
      </trkpt>
      <trkpt lat="48.70392" lon="2.03317">
        <ele>78.9</ele>
        <time>2026-02-05T08:10:19Z</time>
      </trkpt>
      <trkpt lat="48.70394" lon="2.03302">
        <ele>78.9</ele>
        <time>2026-02-05T08:10:26Z</time>
      </trkpt>
      <trkpt lat="48.70395" lon="2.03289">
        <ele>79.2</ele>
        <time>2026-02-05T08:10:32Z</time>
      </trkpt>
      <trkpt lat="48.70396" lon="2.03274">
        <ele>79.4</ele>
        <time>2026-02-05T08:10:39Z</time>
      </trkpt>
      <trkpt lat="48.70397" lon="2.03259">
        <ele>79.1</ele>
        <time>2026-02-05T08:10:46Z</time>
      </trkpt>
      <trkpt lat="48.70398" lon="2.03245">
        <ele>79.1</ele>
        <time>2026-02-05T08:10:53Z</time>
      </trkpt>
      <trkpt lat="48.70398" lon="2.0323">
        <ele>79.2</ele>
        <time>2026-02-05T08:11:00Z</time>
      </trkpt>
      <trkpt lat="48.70397" lon="2.03214">
        <ele>79.3</ele>
        <time>2026-02-05T08:11:07Z</time>
      </trkpt>
      <trkpt lat="48.70396" lon="2.032">
        <ele>79.2</ele>
        <time>2026-02-05T08:11:14Z</time>
      </trkpt>
      <trkpt lat="48.70393" lon="2.03186">
        <ele>79.5</ele>
        <time>2026-02-05T08:11:21Z</time>
      </trkpt>
      <trkpt lat="48.70391" lon="2.03171">
        <ele>80</ele>
        <time>2026-02-05T08:11:28Z</time>
      </trkpt>
      <trkpt lat="48.70388" lon="2.03158">
        <ele>79.6</ele>
        <time>2026-02-05T08:11:34Z</time>
      </trkpt>
      <trkpt lat="48.70385" lon="2.03144">
        <ele>79</ele>
        <time>2026-02-05T08:11:41Z</time>
      </trkpt>
      <trkpt lat="48.70382" lon="2.0313">
        <ele>78.7</ele>
        <time>2026-02-05T08:11:48Z</time>
      </trkpt>
      <trkpt lat="48.70375" lon="2.03118">
        <ele>78.9</ele>
        <time>2026-02-05T08:11:55Z</time>
      </trkpt>
      <trkpt lat="48.70368" lon="2.0311">
        <ele>79.5</ele>
        <time>2026-02-05T08:12:02Z</time>
      </trkpt>
      <trkpt lat="48.70359" lon="2.03104">
        <ele>79.4</ele>
        <time>2026-02-05T08:12:10Z</time>
      </trkpt>
      <trkpt lat="48.70351" lon="2.03096">
        <ele>79</ele>
        <time>2026-02-05T08:12:17Z</time>
      </trkpt>
      <trkpt lat="48.70342" lon="2.03088">
        <ele>79.3</ele>
        <time>2026-02-05T08:12:24Z</time>
      </trkpt>
      <trkpt lat="48.70334" lon="2.0308">
        <ele>79.8</ele>
        <time>2026-02-05T08:12:30Z</time>
      </trkpt>
      <trkpt lat="48.70326" lon="2.03071">
        <ele>79.3</ele>
        <time>2026-02-05T08:12:37Z</time>
      </trkpt>
      <trkpt lat="48.7032" lon="2.03061">
        <ele>79</ele>
        <time>2026-02-05T08:12:43Z</time>
      </trkpt>
      <trkpt lat="48.70313" lon="2.03051">
        <ele>79</ele>
        <time>2026-02-05T08:12:49Z</time>
      </trkpt>
      <trkpt lat="48.70304" lon="2.03043">
        <ele>79</ele>
        <time>2026-02-05T08:12:56Z</time>
      </trkpt>
      <trkpt lat="48.70296" lon="2.03033">
        <ele>78.9</ele>
        <time>2026-02-05T08:13:02Z</time>
      </trkpt>
      <trkpt lat="48.70289" lon="2.03024">
        <ele>78.9</ele>
        <time>2026-02-05T08:13:08Z</time>
      </trkpt>
      <trkpt lat="48.70283" lon="2.03015">
        <ele>78.9</ele>
        <time>2026-02-05T08:13:15Z</time>
      </trkpt>
      <trkpt lat="48.70276" lon="2.03006">
        <ele>79</ele>
        <time>2026-02-05T08:13:22Z</time>
      </trkpt>
      <trkpt lat="48.70269" lon="2.02995">
        <ele>78.9</ele>
        <time>2026-02-05T08:13:29Z</time>
      </trkpt>
      <trkpt lat="48.70261" lon="2.02985">
        <ele>79.1</ele>
        <time>2026-02-05T08:13:36Z</time>
      </trkpt>
      <trkpt lat="48.70253" lon="2.02975">
        <ele>79.7</ele>
        <time>2026-02-05T08:13:43Z</time>
      </trkpt>
      <trkpt lat="48.70247" lon="2.02965">
        <ele>79.5</ele>
        <time>2026-02-05T08:13:50Z</time>
      </trkpt>
      <trkpt lat="48.70239" lon="2.02954">
        <ele>79.1</ele>
        <time>2026-02-05T08:13:57Z</time>
      </trkpt>
      <trkpt lat="48.70233" lon="2.02944">
        <ele>79</ele>
        <time>2026-02-05T08:14:03Z</time>
      </trkpt>
      <trkpt lat="48.70227" lon="2.02931">
        <ele>79</ele>
        <time>2026-02-05T08:14:10Z</time>
      </trkpt>
      <trkpt lat="48.70222" lon="2.02917">
        <ele>79</ele>
        <time>2026-02-05T08:14:16Z</time>
      </trkpt>
      <trkpt lat="48.70218" lon="2.02905">
        <ele>78.9</ele>
        <time>2026-02-05T08:14:21Z</time>
      </trkpt>
      <trkpt lat="48.70215" lon="2.0289">
        <ele>79</ele>
        <time>2026-02-05T08:14:28Z</time>
      </trkpt>
      <trkpt lat="48.70208" lon="2.0288">
        <ele>79</ele>
        <time>2026-02-05T08:14:35Z</time>
      </trkpt>
      <trkpt lat="48.70197" lon="2.0288">
        <ele>79</ele>
        <time>2026-02-05T08:14:42Z</time>
      </trkpt>
      <trkpt lat="48.70192" lon="2.02867">
        <ele>79</ele>
        <time>2026-02-05T08:14:49Z</time>
      </trkpt>
      <trkpt lat="48.70193" lon="2.02852">
        <ele>79</ele>
        <time>2026-02-05T08:14:56Z</time>
      </trkpt>
      <trkpt lat="48.70193" lon="2.02838">
        <ele>79</ele>
        <time>2026-02-05T08:15:02Z</time>
      </trkpt>
      <trkpt lat="48.70196" lon="2.02824">
        <ele>79</ele>
        <time>2026-02-05T08:15:10Z</time>
      </trkpt>
      <trkpt lat="48.70192" lon="2.02837">
        <ele>79</ele>
        <time>2026-02-05T08:15:41Z</time>
      </trkpt>
      <trkpt lat="48.70192" lon="2.02851">
        <ele>79</ele>
        <time>2026-02-05T08:16:00Z</time>
      </trkpt>
      <trkpt lat="48.70195" lon="2.02864">
        <ele>79</ele>
        <time>2026-02-05T08:16:15Z</time>
      </trkpt>
      <trkpt lat="48.70195" lon="2.02879">
        <ele>79</ele>
        <time>2026-02-05T08:16:22Z</time>
      </trkpt>
      <trkpt lat="48.70193" lon="2.02892">
        <ele>78.9</ele>
        <time>2026-02-05T08:16:29Z</time>
      </trkpt>
      <trkpt lat="48.70187" lon="2.02904">
        <ele>78.6</ele>
        <time>2026-02-05T08:16:37Z</time>
      </trkpt>
      <trkpt lat="48.70183" lon="2.02918">
        <ele>78.4</ele>
        <time>2026-02-05T08:16:44Z</time>
      </trkpt>
      <trkpt lat="48.70183" lon="2.02933">
        <ele>78.8</ele>
        <time>2026-02-05T08:16:51Z</time>
      </trkpt>
      <trkpt lat="48.70182" lon="2.02947">
        <ele>79</ele>
        <time>2026-02-05T08:16:58Z</time>
      </trkpt>
      <trkpt lat="48.70182" lon="2.02962">
        <ele>79.3</ele>
        <time>2026-02-05T08:17:05Z</time>
      </trkpt>
      <trkpt lat="48.70183" lon="2.02976">
        <ele>79.7</ele>
        <time>2026-02-05T08:17:12Z</time>
      </trkpt>
      <trkpt lat="48.70189" lon="2.02988">
        <ele>80.3</ele>
        <time>2026-02-05T08:17:19Z</time>
      </trkpt>
      <trkpt lat="48.70196" lon="2.02998">
        <ele>80.6</ele>
        <time>2026-02-05T08:17:26Z</time>
      </trkpt>
      <trkpt lat="48.70205" lon="2.03006">
        <ele>80</ele>
        <time>2026-02-05T08:17:33Z</time>
      </trkpt>
      <trkpt lat="48.70212" lon="2.03016">
        <ele>79.5</ele>
        <time>2026-02-05T08:17:40Z</time>
      </trkpt>
      <trkpt lat="48.70216" lon="2.03029">
        <ele>79.5</ele>
        <time>2026-02-05T08:17:48Z</time>
      </trkpt>
      <trkpt lat="48.7022" lon="2.03043">
        <ele>79.6</ele>
        <time>2026-02-05T08:17:55Z</time>
      </trkpt>
      <trkpt lat="48.70223" lon="2.03056">
        <ele>79.9</ele>
        <time>2026-02-05T08:18:03Z</time>
      </trkpt>
      <trkpt lat="48.70229" lon="2.03068">
        <ele>80</ele>
        <time>2026-02-05T08:18:11Z</time>
      </trkpt>
      <trkpt lat="48.70233" lon="2.03081">
        <ele>80.1</ele>
        <time>2026-02-05T08:18:18Z</time>
      </trkpt>
      <trkpt lat="48.70239" lon="2.03093">
        <ele>80.3</ele>
        <time>2026-02-05T08:18:25Z</time>
      </trkpt>
      <trkpt lat="48.70244" lon="2.03105">
        <ele>80.4</ele>
        <time>2026-02-05T08:18:32Z</time>
      </trkpt>
      <trkpt lat="48.7025" lon="2.03117">
        <ele>80.2</ele>
        <time>2026-02-05T08:18:39Z</time>
      </trkpt>
      <trkpt lat="48.70258" lon="2.03125">
        <ele>80.2</ele>
        <time>2026-02-05T08:18:46Z</time>
      </trkpt>
      <trkpt lat="48.70267" lon="2.03129">
        <ele>80</ele>
        <time>2026-02-05T08:18:53Z</time>
      </trkpt>
      <trkpt lat="48.70277" lon="2.03129">
        <ele>79.7</ele>
        <time>2026-02-05T08:19:00Z</time>
      </trkpt>
      <trkpt lat="48.70287" lon="2.0313">
        <ele>79.4</ele>
        <time>2026-02-05T08:19:07Z</time>
      </trkpt>
      <trkpt lat="48.70295" lon="2.03137">
        <ele>79.3</ele>
        <time>2026-02-05T08:19:13Z</time>
      </trkpt>
      <trkpt lat="48.70299" lon="2.0315">
        <ele>80</ele>
        <time>2026-02-05T08:19:20Z</time>
      </trkpt>
      <trkpt lat="48.70303" lon="2.03163">
        <ele>80.3</ele>
        <time>2026-02-05T08:19:27Z</time>
      </trkpt>
      <trkpt lat="48.70305" lon="2.03177">
        <ele>80</ele>
        <time>2026-02-05T08:19:34Z</time>
      </trkpt>
      <trkpt lat="48.70309" lon="2.03191">
        <ele>79.9</ele>
        <time>2026-02-05T08:19:41Z</time>
      </trkpt>
      <trkpt lat="48.70311" lon="2.03205">
        <ele>79.8</ele>
        <time>2026-02-05T08:19:48Z</time>
      </trkpt>
      <trkpt lat="48.70316" lon="2.03217">
        <ele>79.6</ele>
        <time>2026-02-05T08:19:54Z</time>
      </trkpt>
      <trkpt lat="48.70314" lon="2.03231">
        <ele>79.7</ele>
        <time>2026-02-05T08:20:01Z</time>
      </trkpt>
      <trkpt lat="48.70318" lon="2.03244">
        <ele>79.6</ele>
        <time>2026-02-05T08:20:08Z</time>
      </trkpt>
      <trkpt lat="48.70321" lon="2.03257">
        <ele>79.4</ele>
        <time>2026-02-05T08:20:16Z</time>
      </trkpt>
      <trkpt lat="48.70323" lon="2.03272">
        <ele>79.4</ele>
        <time>2026-02-05T08:20:23Z</time>
      </trkpt>
      <trkpt lat="48.70325" lon="2.03287">
        <ele>79.3</ele>
        <time>2026-02-05T08:20:30Z</time>
      </trkpt>
      <trkpt lat="48.70326" lon="2.03302">
        <ele>79.3</ele>
        <time>2026-02-05T08:20:37Z</time>
      </trkpt>
      <trkpt lat="48.70328" lon="2.03318">
        <ele>79.2</ele>
        <time>2026-02-05T08:20:44Z</time>
      </trkpt>
      <trkpt lat="48.70328" lon="2.03333">
        <ele>79.2</ele>
        <time>2026-02-05T08:20:51Z</time>
      </trkpt>
      <trkpt lat="48.7033" lon="2.03347">
        <ele>79.6</ele>
        <time>2026-02-05T08:20:58Z</time>
      </trkpt>
      <trkpt lat="48.70331" lon="2.03361">
        <ele>80</ele>
        <time>2026-02-05T08:21:05Z</time>
      </trkpt>
      <trkpt lat="48.70333" lon="2.03374">
        <ele>80</ele>
        <time>2026-02-05T08:21:12Z</time>
      </trkpt>
      <trkpt lat="48.70335" lon="2.0339">
        <ele>79.9</ele>
        <time>2026-02-05T08:21:20Z</time>
      </trkpt>
      <trkpt lat="48.70339" lon="2.03403">
        <ele>79.6</ele>
        <time>2026-02-05T08:21:30Z</time>
      </trkpt>
      <trkpt lat="48.70344" lon="2.03416">
        <ele>79.2</ele>
        <time>2026-02-05T08:21:39Z</time>
      </trkpt>
      <trkpt lat="48.70352" lon="2.03427">
        <ele>79.3</ele>
        <time>2026-02-05T08:21:46Z</time>
      </trkpt>
      <trkpt lat="48.70359" lon="2.03435">
        <ele>79.5</ele>
        <time>2026-02-05T08:21:52Z</time>
      </trkpt>
      <trkpt lat="48.70367" lon="2.03445">
        <ele>79.6</ele>
        <time>2026-02-05T08:21:59Z</time>
      </trkpt>
      <trkpt lat="48.70374" lon="2.03453">
        <ele>79.4</ele>
        <time>2026-02-05T08:22:05Z</time>
      </trkpt>
      <trkpt lat="48.70381" lon="2.03463">
        <ele>79.6</ele>
        <time>2026-02-05T08:22:12Z</time>
      </trkpt>
      <trkpt lat="48.70388" lon="2.03474">
        <ele>80</ele>
        <time>2026-02-05T08:22:19Z</time>
      </trkpt>
      <trkpt lat="48.70394" lon="2.03485">
        <ele>79.6</ele>
        <time>2026-02-05T08:22:25Z</time>
      </trkpt>
      <trkpt lat="48.704" lon="2.03497">
        <ele>79.2</ele>
        <time>2026-02-05T08:22:32Z</time>
      </trkpt>
      <trkpt lat="48.70405" lon="2.03511">
        <ele>79.2</ele>
        <time>2026-02-05T08:22:39Z</time>
      </trkpt>
      <trkpt lat="48.70409" lon="2.03523">
        <ele>79.4</ele>
        <time>2026-02-05T08:22:45Z</time>
      </trkpt>
      <trkpt lat="48.70413" lon="2.03538">
        <ele>79.3</ele>
        <time>2026-02-05T08:22:52Z</time>
      </trkpt>
      <trkpt lat="48.70416" lon="2.03551">
        <ele>79</ele>
        <time>2026-02-05T08:22:59Z</time>
      </trkpt>
      <trkpt lat="48.7042" lon="2.03566">
        <ele>79.2</ele>
        <time>2026-02-05T08:23:06Z</time>
      </trkpt>
      <trkpt lat="48.70424" lon="2.03579">
        <ele>79.3</ele>
        <time>2026-02-05T08:23:12Z</time>
      </trkpt>
      <trkpt lat="48.70429" lon="2.03593">
        <ele>79.4</ele>
        <time>2026-02-05T08:23:19Z</time>
      </trkpt>
      <trkpt lat="48.70436" lon="2.03603">
        <ele>79.6</ele>
        <time>2026-02-05T08:23:25Z</time>
      </trkpt>
      <trkpt lat="48.70444" lon="2.03613">
        <ele>79.9</ele>
        <time>2026-02-05T08:23:32Z</time>
      </trkpt>
      <trkpt lat="48.70453" lon="2.03621">
        <ele>79.8</ele>
        <time>2026-02-05T08:23:39Z</time>
      </trkpt>
      <trkpt lat="48.70462" lon="2.03622">
        <ele>79.9</ele>
        <time>2026-02-05T08:23:45Z</time>
      </trkpt>
      <trkpt lat="48.70472" lon="2.0362">
        <ele>80</ele>
        <time>2026-02-05T08:23:52Z</time>
      </trkpt>
      <trkpt lat="48.70479" lon="2.03628">
        <ele>79.7</ele>
        <time>2026-02-05T08:23:58Z</time>
      </trkpt>
      <trkpt lat="48.70486" lon="2.0364">
        <ele>79.5</ele>
        <time>2026-02-05T08:24:05Z</time>
      </trkpt>
      <trkpt lat="48.70487" lon="2.03654">
        <ele>79.5</ele>
        <time>2026-02-05T08:24:11Z</time>
      </trkpt>
      <trkpt lat="48.70488" lon="2.03669">
        <ele>79.3</ele>
        <time>2026-02-05T08:24:17Z</time>
      </trkpt>
      <trkpt lat="48.70491" lon="2.03682">
        <ele>78.8</ele>
        <time>2026-02-05T08:24:23Z</time>
      </trkpt>
      <trkpt lat="48.70493" lon="2.03696">
        <ele>78.3</ele>
        <time>2026-02-05T08:24:29Z</time>
      </trkpt>
      <trkpt lat="48.70496" lon="2.03709">
        <ele>78.1</ele>
        <time>2026-02-05T08:24:35Z</time>
      </trkpt>
      <trkpt lat="48.70499" lon="2.03723">
        <ele>78.1</ele>
        <time>2026-02-05T08:24:41Z</time>
      </trkpt>
      <trkpt lat="48.70501" lon="2.03737">
        <ele>78.5</ele>
        <time>2026-02-05T08:24:47Z</time>
      </trkpt>
      <trkpt lat="48.70505" lon="2.03749">
        <ele>79</ele>
        <time>2026-02-05T08:24:53Z</time>
      </trkpt>
      <trkpt lat="48.70506" lon="2.03764">
        <ele>79.5</ele>
        <time>2026-02-05T08:25:00Z</time>
      </trkpt>
      <trkpt lat="48.70509" lon="2.03777">
        <ele>80</ele>
        <time>2026-02-05T08:25:10Z</time>
      </trkpt>
      <trkpt lat="48.70504" lon="2.03791">
        <ele>79.9</ele>
        <time>2026-02-05T08:25:17Z</time>
      </trkpt>
      <trkpt lat="48.70504" lon="2.03804">
        <ele>79.8</ele>
        <time>2026-02-05T08:25:23Z</time>
      </trkpt>
      <trkpt lat="48.70499" lon="2.03818">
        <ele>79.6</ele>
        <time>2026-02-05T08:25:30Z</time>
      </trkpt>
      <trkpt lat="48.70498" lon="2.03833">
        <ele>79.1</ele>
        <time>2026-02-05T08:25:37Z</time>
      </trkpt>
      <trkpt lat="48.70496" lon="2.03847">
        <ele>79.1</ele>
        <time>2026-02-05T08:25:43Z</time>
      </trkpt>
      <trkpt lat="48.70496" lon="2.03861">
        <ele>79.1</ele>
        <time>2026-02-05T08:25:49Z</time>
      </trkpt>
      <trkpt lat="48.70495" lon="2.03877">
        <ele>78.6</ele>
        <time>2026-02-05T08:25:56Z</time>
      </trkpt>
      <trkpt lat="48.70493" lon="2.03892">
        <ele>78.2</ele>
        <time>2026-02-05T08:26:03Z</time>
      </trkpt>
      <trkpt lat="48.70486" lon="2.03903">
        <ele>78.3</ele>
        <time>2026-02-05T08:26:09Z</time>
      </trkpt>
      <trkpt lat="48.70478" lon="2.0391">
        <ele>78.6</ele>
        <time>2026-02-05T08:26:15Z</time>
      </trkpt>
      <trkpt lat="48.70469" lon="2.03916">
        <ele>79.5</ele>
        <time>2026-02-05T08:26:22Z</time>
      </trkpt>
      <trkpt lat="48.70462" lon="2.03927">
        <ele>80.3</ele>
        <time>2026-02-05T08:26:29Z</time>
      </trkpt>
      <trkpt lat="48.70458" lon="2.03939">
        <ele>80.7</ele>
        <time>2026-02-05T08:26:35Z</time>
      </trkpt>
      <trkpt lat="48.70452" lon="2.03949">
        <ele>81.5</ele>
        <time>2026-02-05T08:26:41Z</time>
      </trkpt>
      <trkpt lat="48.70443" lon="2.03947">
        <ele>82.9</ele>
        <time>2026-02-05T08:26:52Z</time>
      </trkpt>
      <trkpt lat="48.70433" lon="2.03941">
        <ele>83.4</ele>
        <time>2026-02-05T08:27:07Z</time>
      </trkpt>
      <trkpt lat="48.70424" lon="2.03942">
        <ele>83.8</ele>
        <time>2026-02-05T08:27:14Z</time>
      </trkpt>
      <trkpt lat="48.70414" lon="2.03944">
        <ele>84.2</ele>
        <time>2026-02-05T08:27:21Z</time>
      </trkpt>
      <trkpt lat="48.70404" lon="2.03947">
        <ele>84.9</ele>
        <time>2026-02-05T08:27:28Z</time>
      </trkpt>
      <trkpt lat="48.70395" lon="2.0395">
        <ele>85.6</ele>
        <time>2026-02-05T08:27:35Z</time>
      </trkpt>
      <trkpt lat="48.70385" lon="2.03951">
        <ele>86.3</ele>
        <time>2026-02-05T08:27:42Z</time>
      </trkpt>
      <trkpt lat="48.70376" lon="2.03954">
        <ele>87.1</ele>
        <time>2026-02-05T08:27:49Z</time>
      </trkpt>
      <trkpt lat="48.70367" lon="2.03957">
        <ele>87.9</ele>
        <time>2026-02-05T08:27:56Z</time>
      </trkpt>
      <trkpt lat="48.70359" lon="2.03963">
        <ele>89</ele>
        <time>2026-02-05T08:28:03Z</time>
      </trkpt>
      <trkpt lat="48.7035" lon="2.03972">
        <ele>90.2</ele>
        <time>2026-02-05T08:28:10Z</time>
      </trkpt>
      <trkpt lat="48.70344" lon="2.03982">
        <ele>90.9</ele>
        <time>2026-02-05T08:28:17Z</time>
      </trkpt>
      <trkpt lat="48.70337" lon="2.03992">
        <ele>91.6</ele>
        <time>2026-02-05T08:28:24Z</time>
      </trkpt>
      <trkpt lat="48.70328" lon="2.03999">
        <ele>92.4</ele>
        <time>2026-02-05T08:28:31Z</time>
      </trkpt>
      <trkpt lat="48.7032" lon="2.04005">
        <ele>93</ele>
        <time>2026-02-05T08:28:38Z</time>
      </trkpt>
      <trkpt lat="48.70312" lon="2.04011">
        <ele>93.6</ele>
        <time>2026-02-05T08:28:45Z</time>
      </trkpt>
      <trkpt lat="48.70303" lon="2.04017">
        <ele>94.2</ele>
        <time>2026-02-05T08:28:53Z</time>
      </trkpt>
      <trkpt lat="48.70294" lon="2.04022">
        <ele>94.8</ele>
        <time>2026-02-05T08:29:00Z</time>
      </trkpt>
      <trkpt lat="48.70286" lon="2.04029">
        <ele>95.4</ele>
        <time>2026-02-05T08:29:07Z</time>
      </trkpt>
      <trkpt lat="48.70277" lon="2.04035">
        <ele>96</ele>
        <time>2026-02-05T08:29:14Z</time>
      </trkpt>
      <trkpt lat="48.70269" lon="2.04039">
        <ele>96.7</ele>
        <time>2026-02-05T08:29:20Z</time>
      </trkpt>
      <trkpt lat="48.70259" lon="2.04043">
        <ele>97.4</ele>
        <time>2026-02-05T08:29:27Z</time>
      </trkpt>
      <trkpt lat="48.70249" lon="2.04047">
        <ele>98.1</ele>
        <time>2026-02-05T08:29:34Z</time>
      </trkpt>
      <trkpt lat="48.70239" lon="2.04051">
        <ele>98.8</ele>
        <time>2026-02-05T08:29:41Z</time>
      </trkpt>
      <trkpt lat="48.7023" lon="2.04052">
        <ele>99.5</ele>
        <time>2026-02-05T08:29:48Z</time>
      </trkpt>
      <trkpt lat="48.7022" lon="2.04056">
        <ele>100.1</ele>
        <time>2026-02-05T08:29:55Z</time>
      </trkpt>
      <trkpt lat="48.7021" lon="2.04059">
        <ele>100.8</ele>
        <time>2026-02-05T08:30:02Z</time>
      </trkpt>
      <trkpt lat="48.702" lon="2.0406">
        <ele>101.5</ele>
        <time>2026-02-05T08:30:09Z</time>
      </trkpt>
      <trkpt lat="48.70191" lon="2.04063">
        <ele>102.3</ele>
        <time>2026-02-05T08:30:16Z</time>
      </trkpt>
      <trkpt lat="48.70182" lon="2.04065">
        <ele>103.2</ele>
        <time>2026-02-05T08:30:22Z</time>
      </trkpt>
      <trkpt lat="48.70172" lon="2.04067">
        <ele>104.1</ele>
        <time>2026-02-05T08:30:29Z</time>
      </trkpt>
      <trkpt lat="48.70163" lon="2.04071">
        <ele>104.8</ele>
        <time>2026-02-05T08:30:36Z</time>
      </trkpt>
      <trkpt lat="48.70153" lon="2.04073">
        <ele>105.7</ele>
        <time>2026-02-05T08:30:44Z</time>
      </trkpt>
      <trkpt lat="48.70144" lon="2.04076">
        <ele>106.5</ele>
        <time>2026-02-05T08:30:52Z</time>
      </trkpt>
      <trkpt lat="48.70135" lon="2.04077">
        <ele>107.4</ele>
        <time>2026-02-05T08:30:59Z</time>
      </trkpt>
      <trkpt lat="48.70125" lon="2.04079">
        <ele>108.4</ele>
        <time>2026-02-05T08:31:06Z</time>
      </trkpt>
      <trkpt lat="48.70115" lon="2.04081">
        <ele>109.5</ele>
        <time>2026-02-05T08:31:13Z</time>
      </trkpt>
      <trkpt lat="48.70105" lon="2.04084">
        <ele>110.4</ele>
        <time>2026-02-05T08:31:20Z</time>
      </trkpt>
      <trkpt lat="48.70096" lon="2.04086">
        <ele>111.1</ele>
        <time>2026-02-05T08:31:27Z</time>
      </trkpt>
      <trkpt lat="48.70086" lon="2.04088">
        <ele>111.8</ele>
        <time>2026-02-05T08:31:35Z</time>
      </trkpt>
      <trkpt lat="48.70076" lon="2.0409">
        <ele>112.7</ele>
        <time>2026-02-05T08:31:42Z</time>
      </trkpt>
      <trkpt lat="48.70067" lon="2.04087">
        <ele>113.7</ele>
        <time>2026-02-05T08:31:50Z</time>
      </trkpt>
      <trkpt lat="48.70058" lon="2.0409">
        <ele>114.8</ele>
        <time>2026-02-05T08:31:58Z</time>
      </trkpt>
      <trkpt lat="48.70049" lon="2.04083">
        <ele>115.7</ele>
        <time>2026-02-05T08:32:06Z</time>
      </trkpt>
      <trkpt lat="48.70039" lon="2.04081">
        <ele>116.7</ele>
        <time>2026-02-05T08:32:14Z</time>
      </trkpt>
      <trkpt lat="48.70029" lon="2.04076">
        <ele>117.6</ele>
        <time>2026-02-05T08:32:22Z</time>
      </trkpt>
      <trkpt lat="48.7002" lon="2.04076">
        <ele>119.3</ele>
        <time>2026-02-05T08:32:31Z</time>
      </trkpt>
      <trkpt lat="48.70011" lon="2.04076">
        <ele>121.3</ele>
        <time>2026-02-05T08:32:41Z</time>
      </trkpt>
      <trkpt lat="48.70002" lon="2.0407">
        <ele>122.6</ele>
        <time>2026-02-05T08:32:48Z</time>
      </trkpt>
      <trkpt lat="48.69996" lon="2.04058">
        <ele>123.1</ele>
        <time>2026-02-05T08:32:56Z</time>
      </trkpt>
      <trkpt lat="48.6999" lon="2.04049">
        <ele>124.1</ele>
        <time>2026-02-05T08:33:03Z</time>
      </trkpt>
      <trkpt lat="48.69983" lon="2.04038">
        <ele>125</ele>
        <time>2026-02-05T08:33:10Z</time>
      </trkpt>
      <trkpt lat="48.69974" lon="2.04031">
        <ele>126.7</ele>
        <time>2026-02-05T08:33:18Z</time>
      </trkpt>
      <trkpt lat="48.69967" lon="2.04022">
        <ele>127.8</ele>
        <time>2026-02-05T08:33:28Z</time>
      </trkpt>
      <trkpt lat="48.69963" lon="2.04008">
        <ele>127.7</ele>
        <time>2026-02-05T08:33:36Z</time>
      </trkpt>
      <trkpt lat="48.69954" lon="2.04001">
        <ele>129</ele>
        <time>2026-02-05T08:33:45Z</time>
      </trkpt>
      <trkpt lat="48.69948" lon="2.0399">
        <ele>129.6</ele>
        <time>2026-02-05T08:33:53Z</time>
      </trkpt>
      <trkpt lat="48.69943" lon="2.03978">
        <ele>129.8</ele>
        <time>2026-02-05T08:34:00Z</time>
      </trkpt>
      <trkpt lat="48.69939" lon="2.03963">
        <ele>129.3</ele>
        <time>2026-02-05T08:34:07Z</time>
      </trkpt>
      <trkpt lat="48.6993" lon="2.0396">
        <ele>131.5</ele>
        <time>2026-02-05T08:34:15Z</time>
      </trkpt>
      <trkpt lat="48.69925" lon="2.03949">
        <ele>131.4</ele>
        <time>2026-02-05T08:34:24Z</time>
      </trkpt>
      <trkpt lat="48.69921" lon="2.03934">
        <ele>131.1</ele>
        <time>2026-02-05T08:34:34Z</time>
      </trkpt>
      <trkpt lat="48.69916" lon="2.03923">
        <ele>131.8</ele>
        <time>2026-02-05T08:34:43Z</time>
      </trkpt>
      <trkpt lat="48.69917" lon="2.0391">
        <ele>130.2</ele>
        <time>2026-02-05T08:34:51Z</time>
      </trkpt>
      <trkpt lat="48.69911" lon="2.03897">
        <ele>130.2</ele>
        <time>2026-02-05T08:34:59Z</time>
      </trkpt>
      <trkpt lat="48.69907" lon="2.03884">
        <ele>130.1</ele>
        <time>2026-02-05T08:35:06Z</time>
      </trkpt>
      <trkpt lat="48.699" lon="2.03873">
        <ele>130.7</ele>
        <time>2026-02-05T08:35:14Z</time>
      </trkpt>
      <trkpt lat="48.69896" lon="2.0386">
        <ele>130.3</ele>
        <time>2026-02-05T08:35:21Z</time>
      </trkpt>
      <trkpt lat="48.69889" lon="2.0385">
        <ele>130.7</ele>
        <time>2026-02-05T08:35:28Z</time>
      </trkpt>
      <trkpt lat="48.69886" lon="2.03837">
        <ele>130.2</ele>
        <time>2026-02-05T08:35:35Z</time>
      </trkpt>
      <trkpt lat="48.6988" lon="2.03825">
        <ele>130.8</ele>
        <time>2026-02-05T08:35:43Z</time>
      </trkpt>
      <trkpt lat="48.69877" lon="2.03812">
        <ele>130.5</ele>
        <time>2026-02-05T08:35:50Z</time>
      </trkpt>
      <trkpt lat="48.69869" lon="2.03804">
        <ele>131.8</ele>
        <time>2026-02-05T08:36:01Z</time>
      </trkpt>
      <trkpt lat="48.69862" lon="2.03796">
        <ele>132.9</ele>
        <time>2026-02-05T08:36:09Z</time>
      </trkpt>
      <trkpt lat="48.6986" lon="2.03782">
        <ele>131.7</ele>
        <time>2026-02-05T08:36:16Z</time>
      </trkpt>
      <trkpt lat="48.69857" lon="2.03769">
        <ele>131.2</ele>
        <time>2026-02-05T08:36:23Z</time>
      </trkpt>
      <trkpt lat="48.6985" lon="2.03758">
        <ele>131.6</ele>
        <time>2026-02-05T08:36:29Z</time>
      </trkpt>
      <trkpt lat="48.69844" lon="2.03747">
        <ele>132</ele>
        <time>2026-02-05T08:36:36Z</time>
      </trkpt>
      <trkpt lat="48.69841" lon="2.03733">
        <ele>131.5</ele>
        <time>2026-02-05T08:36:44Z</time>
      </trkpt>
      <trkpt lat="48.69837" lon="2.0372">
        <ele>131.1</ele>
        <time>2026-02-05T08:36:51Z</time>
      </trkpt>
      <trkpt lat="48.69834" lon="2.03707">
        <ele>130.7</ele>
        <time>2026-02-05T08:36:59Z</time>
      </trkpt>
      <trkpt lat="48.6983" lon="2.03694">
        <ele>130.9</ele>
        <time>2026-02-05T08:37:07Z</time>
      </trkpt>
      <trkpt lat="48.69826" lon="2.03682">
        <ele>131.3</ele>
        <time>2026-02-05T08:37:14Z</time>
      </trkpt>
      <trkpt lat="48.69822" lon="2.03669">
        <ele>131.6</ele>
        <time>2026-02-05T08:37:21Z</time>
      </trkpt>
      <trkpt lat="48.69818" lon="2.03656">
        <ele>131.3</ele>
        <time>2026-02-05T08:37:28Z</time>
      </trkpt>
      <trkpt lat="48.69814" lon="2.03643">
        <ele>131.2</ele>
        <time>2026-02-05T08:37:35Z</time>
      </trkpt>
      <trkpt lat="48.69809" lon="2.0363">
        <ele>131.5</ele>
        <time>2026-02-05T08:37:42Z</time>
      </trkpt>
      <trkpt lat="48.69804" lon="2.03618">
        <ele>131.8</ele>
        <time>2026-02-05T08:37:50Z</time>
      </trkpt>
      <trkpt lat="48.69801" lon="2.03604">
        <ele>131.5</ele>
        <time>2026-02-05T08:37:58Z</time>
      </trkpt>
      <trkpt lat="48.69796" lon="2.03591">
        <ele>131.6</ele>
        <time>2026-02-05T08:38:06Z</time>
      </trkpt>
      <trkpt lat="48.69792" lon="2.03578">
        <ele>131.6</ele>
        <time>2026-02-05T08:38:13Z</time>
      </trkpt>
      <trkpt lat="48.69787" lon="2.03566">
        <ele>132.1</ele>
        <time>2026-02-05T08:38:20Z</time>
      </trkpt>
      <trkpt lat="48.69785" lon="2.03551">
        <ele>131.5</ele>
        <time>2026-02-05T08:38:28Z</time>
      </trkpt>
      <trkpt lat="48.69788" lon="2.03537">
        <ele>129.8</ele>
        <time>2026-02-05T08:38:34Z</time>
      </trkpt>
      <trkpt lat="48.69786" lon="2.03523">
        <ele>129.2</ele>
        <time>2026-02-05T08:38:41Z</time>
      </trkpt>
      <trkpt lat="48.69785" lon="2.0351">
        <ele>128.7</ele>
        <time>2026-02-05T08:38:48Z</time>
      </trkpt>
      <trkpt lat="48.69784" lon="2.03494">
        <ele>127.6</ele>
        <time>2026-02-05T08:38:56Z</time>
      </trkpt>
      <trkpt lat="48.69784" lon="2.0348">
        <ele>126.3</ele>
        <time>2026-02-05T08:39:04Z</time>
      </trkpt>
      <trkpt lat="48.69784" lon="2.03467">
        <ele>125</ele>
        <time>2026-02-05T08:39:11Z</time>
      </trkpt>
      <trkpt lat="48.69782" lon="2.03452">
        <ele>124.7</ele>
        <time>2026-02-05T08:39:18Z</time>
      </trkpt>
      <trkpt lat="48.6978" lon="2.03437">
        <ele>124.1</ele>
        <time>2026-02-05T08:39:25Z</time>
      </trkpt>
      <trkpt lat="48.69774" lon="2.03427">
        <ele>124.8</ele>
        <time>2026-02-05T08:39:33Z</time>
      </trkpt>
      <trkpt lat="48.69768" lon="2.03417">
        <ele>125.6</ele>
        <time>2026-02-05T08:39:40Z</time>
      </trkpt>
      <trkpt lat="48.69759" lon="2.03409">
        <ele>126.7</ele>
        <time>2026-02-05T08:39:48Z</time>
      </trkpt>
      <trkpt lat="48.69752" lon="2.03398">
        <ele>126.9</ele>
        <time>2026-02-05T08:39:56Z</time>
      </trkpt>
      <trkpt lat="48.69746" lon="2.03389">
        <ele>127.1</ele>
        <time>2026-02-05T08:40:03Z</time>
      </trkpt>
      <trkpt lat="48.6974" lon="2.03377">
        <ele>127.1</ele>
        <time>2026-02-05T08:40:12Z</time>
      </trkpt>
      <trkpt lat="48.69735" lon="2.03364">
        <ele>126.5</ele>
        <time>2026-02-05T08:40:19Z</time>
      </trkpt>
      <trkpt lat="48.6973" lon="2.03352">
        <ele>125.8</ele>
        <time>2026-02-05T08:40:27Z</time>
      </trkpt>
      <trkpt lat="48.69726" lon="2.03338">
        <ele>124.3</ele>
        <time>2026-02-05T08:40:35Z</time>
      </trkpt>
      <trkpt lat="48.69723" lon="2.03325">
        <ele>122.8</ele>
        <time>2026-02-05T08:40:41Z</time>
      </trkpt>
      <trkpt lat="48.69714" lon="2.03317">
        <ele>122.8</ele>
        <time>2026-02-05T08:40:48Z</time>
      </trkpt>
      <trkpt lat="48.69705" lon="2.03312">
        <ele>123.4</ele>
        <time>2026-02-05T08:40:55Z</time>
      </trkpt>
      <trkpt lat="48.69697" lon="2.03305">
        <ele>123.5</ele>
        <time>2026-02-05T08:41:03Z</time>
      </trkpt>
      <trkpt lat="48.69689" lon="2.03297">
        <ele>123.7</ele>
        <time>2026-02-05T08:41:10Z</time>
      </trkpt>
      <trkpt lat="48.69682" lon="2.03287">
        <ele>123.4</ele>
        <time>2026-02-05T08:41:19Z</time>
      </trkpt>
      <trkpt lat="48.69673" lon="2.03282">
        <ele>123.8</ele>
        <time>2026-02-05T08:41:27Z</time>
      </trkpt>
      <trkpt lat="48.69669" lon="2.0327">
        <ele>122.9</ele>
        <time>2026-02-05T08:41:35Z</time>
      </trkpt>
      <trkpt lat="48.69663" lon="2.03258">
        <ele>122.2</ele>
        <time>2026-02-05T08:41:42Z</time>
      </trkpt>
      <trkpt lat="48.69662" lon="2.03244">
        <ele>120.7</ele>
        <time>2026-02-05T08:41:51Z</time>
      </trkpt>
      <trkpt lat="48.69663" lon="2.0323">
        <ele>119</ele>
        <time>2026-02-05T08:41:57Z</time>
      </trkpt>
      <trkpt lat="48.69667" lon="2.03215">
        <ele>117</ele>
        <time>2026-02-05T08:42:16Z</time>
      </trkpt>
      <trkpt lat="48.69666" lon="2.032">
        <ele>114.8</ele>
        <time>2026-02-05T08:42:23Z</time>
      </trkpt>
      <trkpt lat="48.69658" lon="2.03194">
        <ele>114.2</ele>
        <time>2026-02-05T08:42:30Z</time>
      </trkpt>
      <trkpt lat="48.6965" lon="2.032">
        <ele>115.4</ele>
        <time>2026-02-05T08:42:38Z</time>
      </trkpt>
      <trkpt lat="48.69641" lon="2.032">
        <ele>115.8</ele>
        <time>2026-02-05T08:42:45Z</time>
      </trkpt>
      <trkpt lat="48.69631" lon="2.03201">
        <ele>116</ele>
        <time>2026-02-05T08:42:52Z</time>
      </trkpt>
      <trkpt lat="48.6962" lon="2.03201">
        <ele>116.1</ele>
        <time>2026-02-05T08:42:59Z</time>
      </trkpt>
      <trkpt lat="48.6961" lon="2.032">
        <ele>116.1</ele>
        <time>2026-02-05T08:43:06Z</time>
      </trkpt>
      <trkpt lat="48.69601" lon="2.03197">
        <ele>115.8</ele>
        <time>2026-02-05T08:43:12Z</time>
      </trkpt>
      <trkpt lat="48.69591" lon="2.03195">
        <ele>115.9</ele>
        <time>2026-02-05T08:43:19Z</time>
      </trkpt>
      <trkpt lat="48.69582" lon="2.03193">
        <ele>115.8</ele>
        <time>2026-02-05T08:43:26Z</time>
      </trkpt>
      <trkpt lat="48.69573" lon="2.03193">
        <ele>115.8</ele>
        <time>2026-02-05T08:43:33Z</time>
      </trkpt>
      <trkpt lat="48.69563" lon="2.03193">
        <ele>115.8</ele>
        <time>2026-02-05T08:43:40Z</time>
      </trkpt>
      <trkpt lat="48.69553" lon="2.03192">
        <ele>115.4</ele>
        <time>2026-02-05T08:44:09Z</time>
      </trkpt>
      <trkpt lat="48.69544" lon="2.03198">
        <ele>115.5</ele>
        <time>2026-02-05T08:44:16Z</time>
      </trkpt>
      <trkpt lat="48.69534" lon="2.03203">
        <ele>115.8</ele>
        <time>2026-02-05T08:44:23Z</time>
      </trkpt>
      <trkpt lat="48.69525" lon="2.0321">
        <ele>116.4</ele>
        <time>2026-02-05T08:44:30Z</time>
      </trkpt>
      <trkpt lat="48.69515" lon="2.03216">
        <ele>116</ele>
        <time>2026-02-05T08:44:37Z</time>
      </trkpt>
      <trkpt lat="48.69507" lon="2.03221">
        <ele>115.2</ele>
        <time>2026-02-05T08:44:43Z</time>
      </trkpt>
      <trkpt lat="48.69499" lon="2.03227">
        <ele>115.2</ele>
        <time>2026-02-05T08:44:50Z</time>
      </trkpt>
      <trkpt lat="48.6949" lon="2.03235">
        <ele>115.3</ele>
        <time>2026-02-05T08:44:57Z</time>
      </trkpt>
      <trkpt lat="48.69482" lon="2.03241">
        <ele>115.3</ele>
        <time>2026-02-05T08:45:04Z</time>
      </trkpt>
      <trkpt lat="48.69471" lon="2.03245">
        <ele>114.1</ele>
        <time>2026-02-05T08:45:11Z</time>
      </trkpt>
      <trkpt lat="48.69462" lon="2.0325">
        <ele>114.2</ele>
        <time>2026-02-05T08:45:17Z</time>
      </trkpt>
      <trkpt lat="48.69454" lon="2.03243">
        <ele>113.2</ele>
        <time>2026-02-05T08:45:25Z</time>
      </trkpt>
      <trkpt lat="48.69446" lon="2.03233">
        <ele>112.9</ele>
        <time>2026-02-05T08:45:36Z</time>
      </trkpt>
      <trkpt lat="48.69443" lon="2.03246">
        <ele>113.4</ele>
        <time>2026-02-05T08:45:45Z</time>
      </trkpt>
      <trkpt lat="48.69436" lon="2.03237">
        <ele>115</ele>
        <time>2026-02-05T08:46:05Z</time>
      </trkpt>
      <trkpt lat="48.69443" lon="2.03227">
        <ele>113.2</ele>
        <time>2026-02-05T08:47:27Z</time>
      </trkpt>
      <trkpt lat="48.69443" lon="2.03213">
        <ele>113.3</ele>
        <time>2026-02-05T08:47:35Z</time>
      </trkpt>
      <trkpt lat="48.69434" lon="2.03213">
        <ele>115.6</ele>
        <time>2026-02-05T08:47:46Z</time>
      </trkpt>
      <trkpt lat="48.69427" lon="2.03203">
        <ele>117.3</ele>
        <time>2026-02-05T08:47:58Z</time>
      </trkpt>
      <trkpt lat="48.69424" lon="2.03189">
        <ele>118</ele>
        <time>2026-02-05T08:48:07Z</time>
      </trkpt>
      <trkpt lat="48.69419" lon="2.03177">
        <ele>118.9</ele>
        <time>2026-02-05T08:48:16Z</time>
      </trkpt>
      <trkpt lat="48.69413" lon="2.03167">
        <ele>120</ele>
        <time>2026-02-05T08:48:24Z</time>
      </trkpt>
      <trkpt lat="48.69409" lon="2.03153">
        <ele>121.1</ele>
        <time>2026-02-05T08:48:33Z</time>
      </trkpt>
      <trkpt lat="48.69405" lon="2.03139">
        <ele>121.7</ele>
        <time>2026-02-05T08:48:43Z</time>
      </trkpt>
      <trkpt lat="48.69401" lon="2.03125">
        <ele>122.8</ele>
        <time>2026-02-05T08:48:52Z</time>
      </trkpt>
      <trkpt lat="48.69397" lon="2.03111">
        <ele>123.8</ele>
        <time>2026-02-05T08:49:00Z</time>
      </trkpt>
      <trkpt lat="48.69392" lon="2.03101">
        <ele>125.3</ele>
        <time>2026-02-05T08:49:07Z</time>
      </trkpt>
      <trkpt lat="48.69382" lon="2.03097">
        <ele>127.1</ele>
        <time>2026-02-05T08:49:15Z</time>
      </trkpt>
      <trkpt lat="48.69374" lon="2.03093">
        <ele>128.7</ele>
        <time>2026-02-05T08:49:24Z</time>
      </trkpt>
      <trkpt lat="48.69365" lon="2.03089">
        <ele>130.2</ele>
        <time>2026-02-05T08:49:33Z</time>
      </trkpt>
      <trkpt lat="48.69357" lon="2.03082">
        <ele>131.8</ele>
        <time>2026-02-05T08:49:44Z</time>
      </trkpt>
      <trkpt lat="48.69349" lon="2.03074">
        <ele>133.1</ele>
        <time>2026-02-05T08:49:58Z</time>
      </trkpt>
      <trkpt lat="48.69339" lon="2.03072">
        <ele>134.7</ele>
        <time>2026-02-05T08:50:08Z</time>
      </trkpt>
      <trkpt lat="48.6933" lon="2.03068">
        <ele>135.9</ele>
        <time>2026-02-05T08:50:17Z</time>
      </trkpt>
      <trkpt lat="48.69322" lon="2.0306">
        <ele>136.9</ele>
        <time>2026-02-05T08:50:27Z</time>
      </trkpt>
      <trkpt lat="48.69313" lon="2.03056">
        <ele>137.9</ele>
        <time>2026-02-05T08:50:42Z</time>
      </trkpt>
      <trkpt lat="48.69304" lon="2.03051">
        <ele>139.1</ele>
        <time>2026-02-05T08:50:52Z</time>
      </trkpt>
      <trkpt lat="48.69295" lon="2.03048">
        <ele>140.2</ele>
        <time>2026-02-05T08:51:01Z</time>
      </trkpt>
      <trkpt lat="48.69285" lon="2.03047">
        <ele>141.6</ele>
        <time>2026-02-05T08:51:11Z</time>
      </trkpt>
      <trkpt lat="48.69276" lon="2.03045">
        <ele>142.8</ele>
        <time>2026-02-05T08:51:19Z</time>
      </trkpt>
      <trkpt lat="48.69268" lon="2.03051">
        <ele>143.9</ele>
        <time>2026-02-05T08:51:28Z</time>
      </trkpt>
      <trkpt lat="48.69259" lon="2.03059">
        <ele>145.1</ele>
        <time>2026-02-05T08:51:37Z</time>
      </trkpt>
      <trkpt lat="48.69251" lon="2.03066">
        <ele>146.3</ele>
        <time>2026-02-05T08:51:45Z</time>
      </trkpt>
      <trkpt lat="48.69241" lon="2.03071">
        <ele>147.5</ele>
        <time>2026-02-05T08:51:54Z</time>
      </trkpt>
      <trkpt lat="48.69233" lon="2.03065">
        <ele>148.2</ele>
        <time>2026-02-05T08:52:03Z</time>
      </trkpt>
      <trkpt lat="48.69231" lon="2.03051">
        <ele>148</ele>
        <time>2026-02-05T08:53:17Z</time>
      </trkpt>
      <trkpt lat="48.6923" lon="2.03036">
        <ele>148</ele>
        <time>2026-02-05T08:53:25Z</time>
      </trkpt>
      <trkpt lat="48.69228" lon="2.03021">
        <ele>147.9</ele>
        <time>2026-02-05T08:53:31Z</time>
      </trkpt>
      <trkpt lat="48.69226" lon="2.03008">
        <ele>147.7</ele>
        <time>2026-02-05T08:53:37Z</time>
      </trkpt>
      <trkpt lat="48.69225" lon="2.02993">
        <ele>147.4</ele>
        <time>2026-02-05T08:53:44Z</time>
      </trkpt>
      <trkpt lat="48.69223" lon="2.02978">
        <ele>147.1</ele>
        <time>2026-02-05T08:53:50Z</time>
      </trkpt>
      <trkpt lat="48.69221" lon="2.02964">
        <ele>146.9</ele>
        <time>2026-02-05T08:53:56Z</time>
      </trkpt>
      <trkpt lat="48.6922" lon="2.0295">
        <ele>146.5</ele>
        <time>2026-02-05T08:54:02Z</time>
      </trkpt>
      <trkpt lat="48.69218" lon="2.02936">
        <ele>146.2</ele>
        <time>2026-02-05T08:54:08Z</time>
      </trkpt>
      <trkpt lat="48.69216" lon="2.02922">
        <ele>146.1</ele>
        <time>2026-02-05T08:54:16Z</time>
      </trkpt>
      <trkpt lat="48.69212" lon="2.02909">
        <ele>146.1</ele>
        <time>2026-02-05T08:54:24Z</time>
      </trkpt>
      <trkpt lat="48.6921" lon="2.02893">
        <ele>145.9</ele>
        <time>2026-02-05T08:54:31Z</time>
      </trkpt>
      <trkpt lat="48.69208" lon="2.02879">
        <ele>145.8</ele>
        <time>2026-02-05T08:54:37Z</time>
      </trkpt>
      <trkpt lat="48.69207" lon="2.02866">
        <ele>145.7</ele>
        <time>2026-02-05T08:54:43Z</time>
      </trkpt>
      <trkpt lat="48.69206" lon="2.0285">
        <ele>145.3</ele>
        <time>2026-02-05T08:54:50Z</time>
      </trkpt>
      <trkpt lat="48.69208" lon="2.02836">
        <ele>144.6</ele>
        <time>2026-02-05T08:54:57Z</time>
      </trkpt>
      <trkpt lat="48.69214" lon="2.02824">
        <ele>143.8</ele>
        <time>2026-02-05T08:55:05Z</time>
      </trkpt>
      <trkpt lat="48.69218" lon="2.02811">
        <ele>143.3</ele>
        <time>2026-02-05T08:55:12Z</time>
      </trkpt>
      <trkpt lat="48.69217" lon="2.02797">
        <ele>143.4</ele>
        <time>2026-02-05T08:55:18Z</time>
      </trkpt>
      <trkpt lat="48.6921" lon="2.02785">
        <ele>143.9</ele>
        <time>2026-02-05T08:55:25Z</time>
      </trkpt>
      <trkpt lat="48.69202" lon="2.02777">
        <ele>144.4</ele>
        <time>2026-02-05T08:55:33Z</time>
      </trkpt>
      <trkpt lat="48.69197" lon="2.02765">
        <ele>144.8</ele>
        <time>2026-02-05T08:55:40Z</time>
      </trkpt>
      <trkpt lat="48.69192" lon="2.02752">
        <ele>145.1</ele>
        <time>2026-02-05T08:55:47Z</time>
      </trkpt>
      <trkpt lat="48.69188" lon="2.02738">
        <ele>145.5</ele>
        <time>2026-02-05T08:55:54Z</time>
      </trkpt>
      <trkpt lat="48.69183" lon="2.02727">
        <ele>145.8</ele>
        <time>2026-02-05T08:56:00Z</time>
      </trkpt>
      <trkpt lat="48.69177" lon="2.02715">
        <ele>146.1</ele>
        <time>2026-02-05T08:56:07Z</time>
      </trkpt>
      <trkpt lat="48.69171" lon="2.02703">
        <ele>146.6</ele>
        <time>2026-02-05T08:56:14Z</time>
      </trkpt>
      <trkpt lat="48.69166" lon="2.02691">
        <ele>147</ele>
        <time>2026-02-05T08:56:20Z</time>
      </trkpt>
      <trkpt lat="48.69161" lon="2.02679">
        <ele>147.4</ele>
        <time>2026-02-05T08:56:27Z</time>
      </trkpt>
      <trkpt lat="48.69155" lon="2.02668">
        <ele>147.8</ele>
        <time>2026-02-05T08:56:34Z</time>
      </trkpt>
      <trkpt lat="48.69149" lon="2.02658">
        <ele>148.2</ele>
        <time>2026-02-05T08:56:45Z</time>
      </trkpt>
      <trkpt lat="48.69144" lon="2.02645">
        <ele>148.5</ele>
        <time>2026-02-05T08:56:53Z</time>
      </trkpt>
      <trkpt lat="48.69138" lon="2.02633">
        <ele>148.9</ele>
        <time>2026-02-05T08:57:05Z</time>
      </trkpt>
      <trkpt lat="48.69136" lon="2.02619">
        <ele>148.6</ele>
        <time>2026-02-05T08:57:11Z</time>
      </trkpt>
      <trkpt lat="48.6913" lon="2.02606">
        <ele>148.8</ele>
        <time>2026-02-05T08:57:17Z</time>
      </trkpt>
      <trkpt lat="48.69124" lon="2.02594">
        <ele>149</ele>
        <time>2026-02-05T08:57:25Z</time>
      </trkpt>
      <trkpt lat="48.69117" lon="2.02583">
        <ele>149.3</ele>
        <time>2026-02-05T08:57:32Z</time>
      </trkpt>
      <trkpt lat="48.69115" lon="2.02569">
        <ele>149</ele>
        <time>2026-02-05T08:57:43Z</time>
      </trkpt>
      <trkpt lat="48.69107" lon="2.0256">
        <ele>149.6</ele>
        <time>2026-02-05T08:57:50Z</time>
      </trkpt>
      <trkpt lat="48.69099" lon="2.02553">
        <ele>150.2</ele>
        <time>2026-02-05T08:57:57Z</time>
      </trkpt>
      <trkpt lat="48.69091" lon="2.02544">
        <ele>150.7</ele>
        <time>2026-02-05T08:58:06Z</time>
      </trkpt>
      <trkpt lat="48.69084" lon="2.02535">
        <ele>151.2</ele>
        <time>2026-02-05T08:58:14Z</time>
      </trkpt>
      <trkpt lat="48.69075" lon="2.0253">
        <ele>151.9</ele>
        <time>2026-02-05T08:58:22Z</time>
      </trkpt>
      <trkpt lat="48.69068" lon="2.0252">
        <ele>152.6</ele>
        <time>2026-02-05T08:58:30Z</time>
      </trkpt>
      <trkpt lat="48.69059" lon="2.02514">
        <ele>153.6</ele>
        <time>2026-02-05T08:58:39Z</time>
      </trkpt>
      <trkpt lat="48.6905" lon="2.02512">
        <ele>154.6</ele>
        <time>2026-02-05T08:58:46Z</time>
      </trkpt>
      <trkpt lat="48.69044" lon="2.025">
        <ele>155.2</ele>
        <time>2026-02-05T08:58:55Z</time>
      </trkpt>
      <trkpt lat="48.69038" lon="2.02489">
        <ele>155.5</ele>
        <time>2026-02-05T08:59:03Z</time>
      </trkpt>
      <trkpt lat="48.69033" lon="2.02476">
        <ele>155.6</ele>
        <time>2026-02-05T08:59:12Z</time>
      </trkpt>
      <trkpt lat="48.69029" lon="2.02463">
        <ele>155.5</ele>
        <time>2026-02-05T08:59:20Z</time>
      </trkpt>
      <trkpt lat="48.69021" lon="2.02456">
        <ele>156</ele>
        <time>2026-02-05T08:59:29Z</time>
      </trkpt>
      <trkpt lat="48.69016" lon="2.02443">
        <ele>156.2</ele>
        <time>2026-02-05T08:59:44Z</time>
      </trkpt>
      <trkpt lat="48.69011" lon="2.0243">
        <ele>156.3</ele>
        <time>2026-02-05T08:59:52Z</time>
      </trkpt>
      <trkpt lat="48.69004" lon="2.02418">
        <ele>156.6</ele>
        <time>2026-02-05T09:00:00Z</time>
      </trkpt>
      <trkpt lat="48.68997" lon="2.02408">
        <ele>156.9</ele>
        <time>2026-02-05T09:00:08Z</time>
      </trkpt>
      <trkpt lat="48.6899" lon="2.024">
        <ele>157.2</ele>
        <time>2026-02-05T09:00:15Z</time>
      </trkpt>
      <trkpt lat="48.68983" lon="2.0239">
        <ele>157.3</ele>
        <time>2026-02-05T09:00:23Z</time>
      </trkpt>
      <trkpt lat="48.68979" lon="2.02378">
        <ele>157</ele>
        <time>2026-02-05T09:00:33Z</time>
      </trkpt>
      <trkpt lat="48.68972" lon="2.0237">
        <ele>157.4</ele>
        <time>2026-02-05T09:00:41Z</time>
      </trkpt>
      <trkpt lat="48.68964" lon="2.02362">
        <ele>157.6</ele>
        <time>2026-02-05T09:00:50Z</time>
      </trkpt>
      <trkpt lat="48.68968" lon="2.02347">
        <ele>155.4</ele>
        <time>2026-02-05T09:01:08Z</time>
      </trkpt>
      <trkpt lat="48.68976" lon="2.02339">
        <ele>153.4</ele>
        <time>2026-02-05T09:01:17Z</time>
      </trkpt>
      <trkpt lat="48.68982" lon="2.02329">
        <ele>151.2</ele>
        <time>2026-02-05T09:01:34Z</time>
      </trkpt>
      <trkpt lat="48.6899" lon="2.0232">
        <ele>148.8</ele>
        <time>2026-02-05T09:01:44Z</time>
      </trkpt>
      <trkpt lat="48.68997" lon="2.0231">
        <ele>146.3</ele>
        <time>2026-02-05T09:01:52Z</time>
      </trkpt>
      <trkpt lat="48.69005" lon="2.02303">
        <ele>144.3</ele>
        <time>2026-02-05T09:01:57Z</time>
      </trkpt>
      <trkpt lat="48.69015" lon="2.02295">
        <ele>142.6</ele>
        <time>2026-02-05T09:02:06Z</time>
      </trkpt>
      <trkpt lat="48.69006" lon="2.02294">
        <ele>143.1</ele>
        <time>2026-02-05T09:02:11Z</time>
      </trkpt>
      <trkpt lat="48.69001" lon="2.02282">
        <ele>141.6</ele>
        <time>2026-02-05T09:02:17Z</time>
      </trkpt>
      <trkpt lat="48.68994" lon="2.02269">
        <ele>140.2</ele>
        <time>2026-02-05T09:02:25Z</time>
      </trkpt>
      <trkpt lat="48.6899" lon="2.02257">
        <ele>138.7</ele>
        <time>2026-02-05T09:02:30Z</time>
      </trkpt>
      <trkpt lat="48.68986" lon="2.02243">
        <ele>137.2</ele>
        <time>2026-02-05T09:02:37Z</time>
      </trkpt>
      <trkpt lat="48.68979" lon="2.02232">
        <ele>136.6</ele>
        <time>2026-02-05T09:02:45Z</time>
      </trkpt>
      <trkpt lat="48.68971" lon="2.02225">
        <ele>136.3</ele>
        <time>2026-02-05T09:02:52Z</time>
      </trkpt>
      <trkpt lat="48.68964" lon="2.02215">
        <ele>135.7</ele>
        <time>2026-02-05T09:03:00Z</time>
      </trkpt>
      <trkpt lat="48.68959" lon="2.02203">
        <ele>134.6</ele>
        <time>2026-02-05T09:03:07Z</time>
      </trkpt>
      <trkpt lat="48.68958" lon="2.02189">
        <ele>132.7</ele>
        <time>2026-02-05T09:03:14Z</time>
      </trkpt>
      <trkpt lat="48.68955" lon="2.02174">
        <ele>130.5</ele>
        <time>2026-02-05T09:03:21Z</time>
      </trkpt>
      <trkpt lat="48.68954" lon="2.0216">
        <ele>128.3</ele>
        <time>2026-02-05T09:03:28Z</time>
      </trkpt>
      <trkpt lat="48.68945" lon="2.02159">
        <ele>127.9</ele>
        <time>2026-02-05T09:03:37Z</time>
      </trkpt>
      <trkpt lat="48.68937" lon="2.02149">
        <ele>126.4</ele>
        <time>2026-02-05T09:03:46Z</time>
      </trkpt>
      <trkpt lat="48.6893" lon="2.02139">
        <ele>124.4</ele>
        <time>2026-02-05T09:03:54Z</time>
      </trkpt>
      <trkpt lat="48.68921" lon="2.02135">
        <ele>123.5</ele>
        <time>2026-02-05T09:04:01Z</time>
      </trkpt>
      <trkpt lat="48.6891" lon="2.02136">
        <ele>123.6</ele>
        <time>2026-02-05T09:04:08Z</time>
      </trkpt>
      <trkpt lat="48.68903" lon="2.0213">
        <ele>122.5</ele>
        <time>2026-02-05T09:04:39Z</time>
      </trkpt>
      <trkpt lat="48.68898" lon="2.02116">
        <ele>120.1</ele>
        <time>2026-02-05T09:04:46Z</time>
      </trkpt>
      <trkpt lat="48.68892" lon="2.02106">
        <ele>118.3</ele>
        <time>2026-02-05T09:04:53Z</time>
      </trkpt>
      <trkpt lat="48.68882" lon="2.02101">
        <ele>116.6</ele>
        <time>2026-02-05T09:04:59Z</time>
      </trkpt>
      <trkpt lat="48.68874" lon="2.02107">
        <ele>116.3</ele>
        <time>2026-02-05T09:05:06Z</time>
      </trkpt>
      <trkpt lat="48.68863" lon="2.02107">
        <ele>114.8</ele>
        <time>2026-02-05T09:05:14Z</time>
      </trkpt>
      <trkpt lat="48.68857" lon="2.02096">
        <ele>112.8</ele>
        <time>2026-02-05T09:05:22Z</time>
      </trkpt>
      <trkpt lat="48.68847" lon="2.02095">
        <ele>111.5</ele>
        <time>2026-02-05T09:05:31Z</time>
      </trkpt>
      <trkpt lat="48.68839" lon="2.02102">
        <ele>111.3</ele>
        <time>2026-02-05T09:05:38Z</time>
      </trkpt>
      <trkpt lat="48.68831" lon="2.02094">
        <ele>109.5</ele>
        <time>2026-02-05T09:05:47Z</time>
      </trkpt>
      <trkpt lat="48.68823" lon="2.02088">
        <ele>108.3</ele>
        <time>2026-02-05T09:06:23Z</time>
      </trkpt>
      <trkpt lat="48.68814" lon="2.02093">
        <ele>108.7</ele>
        <time>2026-02-05T09:06:31Z</time>
      </trkpt>
      <trkpt lat="48.68805" lon="2.021">
        <ele>109.4</ele>
        <time>2026-02-05T09:06:39Z</time>
      </trkpt>
      <trkpt lat="48.68795" lon="2.02104">
        <ele>109.4</ele>
        <time>2026-02-05T09:06:47Z</time>
      </trkpt>
      <trkpt lat="48.68786" lon="2.02106">
        <ele>109.1</ele>
        <time>2026-02-05T09:06:54Z</time>
      </trkpt>
      <trkpt lat="48.68777" lon="2.02109">
        <ele>108.8</ele>
        <time>2026-02-05T09:07:01Z</time>
      </trkpt>
      <trkpt lat="48.68767" lon="2.0211">
        <ele>108.6</ele>
        <time>2026-02-05T09:07:08Z</time>
      </trkpt>
      <trkpt lat="48.68758" lon="2.02113">
        <ele>108.6</ele>
        <time>2026-02-05T09:07:15Z</time>
      </trkpt>
      <trkpt lat="48.68748" lon="2.02116">
        <ele>109</ele>
        <time>2026-02-05T09:07:22Z</time>
      </trkpt>
      <trkpt lat="48.68739" lon="2.02118">
        <ele>109.2</ele>
        <time>2026-02-05T09:07:29Z</time>
      </trkpt>
      <trkpt lat="48.6873" lon="2.02121">
        <ele>109.7</ele>
        <time>2026-02-05T09:07:36Z</time>
      </trkpt>
      <trkpt lat="48.6872" lon="2.02124">
        <ele>110.3</ele>
        <time>2026-02-05T09:07:44Z</time>
      </trkpt>
      <trkpt lat="48.68711" lon="2.02129">
        <ele>110.7</ele>
        <time>2026-02-05T09:07:51Z</time>
      </trkpt>
      <trkpt lat="48.68702" lon="2.02136">
        <ele>111.1</ele>
        <time>2026-02-05T09:07:58Z</time>
      </trkpt>
      <trkpt lat="48.68693" lon="2.02142">
        <ele>111.5</ele>
        <time>2026-02-05T09:08:05Z</time>
      </trkpt>
      <trkpt lat="48.68684" lon="2.02147">
        <ele>111.9</ele>
        <time>2026-02-05T09:08:12Z</time>
      </trkpt>
      <trkpt lat="48.68675" lon="2.0215">
        <ele>111.8</ele>
        <time>2026-02-05T09:08:18Z</time>
      </trkpt>
      <trkpt lat="48.68666" lon="2.02152">
        <ele>111.4</ele>
        <time>2026-02-05T09:08:25Z</time>
      </trkpt>
      <trkpt lat="48.68656" lon="2.02154">
        <ele>111.5</ele>
        <time>2026-02-05T09:08:32Z</time>
      </trkpt>
      <trkpt lat="48.68646" lon="2.02154">
        <ele>111.4</ele>
        <time>2026-02-05T09:08:40Z</time>
      </trkpt>
      <trkpt lat="48.68636" lon="2.02156">
        <ele>111.3</ele>
        <time>2026-02-05T09:08:48Z</time>
      </trkpt>
      <trkpt lat="48.68627" lon="2.0216">
        <ele>111.5</ele>
        <time>2026-02-05T09:08:55Z</time>
      </trkpt>
      <trkpt lat="48.68617" lon="2.02164">
        <ele>111.2</ele>
        <time>2026-02-05T09:09:02Z</time>
      </trkpt>
      <trkpt lat="48.68611" lon="2.02177">
        <ele>112.1</ele>
        <time>2026-02-05T09:09:12Z</time>
      </trkpt>
      <trkpt lat="48.68605" lon="2.02188">
        <ele>112.8</ele>
        <time>2026-02-05T09:09:20Z</time>
      </trkpt>
      <trkpt lat="48.68601" lon="2.02201">
        <ele>113.4</ele>
        <time>2026-02-05T09:09:28Z</time>
      </trkpt>
      <trkpt lat="48.68596" lon="2.02213">
        <ele>113.6</ele>
        <time>2026-02-05T09:09:36Z</time>
      </trkpt>
      <trkpt lat="48.68591" lon="2.02225">
        <ele>113.7</ele>
        <time>2026-02-05T09:09:44Z</time>
      </trkpt>
      <trkpt lat="48.68587" lon="2.02238">
        <ele>114.1</ele>
        <time>2026-02-05T09:09:51Z</time>
      </trkpt>
      <trkpt lat="48.68582" lon="2.02251">
        <ele>114</ele>
        <time>2026-02-05T09:09:59Z</time>
      </trkpt>
      <trkpt lat="48.68576" lon="2.0226">
        <ele>113.9</ele>
        <time>2026-02-05T09:10:07Z</time>
      </trkpt>
      <trkpt lat="48.68571" lon="2.02274">
        <ele>114.4</ele>
        <time>2026-02-05T09:10:15Z</time>
      </trkpt>
      <trkpt lat="48.68565" lon="2.02285">
        <ele>114.6</ele>
        <time>2026-02-05T09:10:23Z</time>
      </trkpt>
      <trkpt lat="48.68559" lon="2.02296">
        <ele>114.8</ele>
        <time>2026-02-05T09:10:31Z</time>
      </trkpt>
      <trkpt lat="48.68555" lon="2.02309">
        <ele>115.3</ele>
        <time>2026-02-05T09:10:39Z</time>
      </trkpt>
      <trkpt lat="48.68551" lon="2.02321">
        <ele>116.1</ele>
        <time>2026-02-05T09:10:48Z</time>
      </trkpt>
      <trkpt lat="48.68542" lon="2.02326">
        <ele>115.5</ele>
        <time>2026-02-05T09:10:57Z</time>
      </trkpt>
      <trkpt lat="48.68533" lon="2.02331">
        <ele>114.6</ele>
        <time>2026-02-05T09:11:05Z</time>
      </trkpt>
      <trkpt lat="48.68529" lon="2.02316">
        <ele>113.6</ele>
        <time>2026-02-05T09:11:15Z</time>
      </trkpt>
      <trkpt lat="48.68537" lon="2.02326">
        <ele>114.9</ele>
        <time>2026-02-05T09:12:28Z</time>
      </trkpt>
      <trkpt lat="48.68537" lon="2.0234">
        <ele>115.6</ele>
        <time>2026-02-05T09:12:37Z</time>
      </trkpt>
      <trkpt lat="48.6853" lon="2.0235">
        <ele>114.9</ele>
        <time>2026-02-05T09:12:46Z</time>
      </trkpt>
      <trkpt lat="48.68524" lon="2.02363">
        <ele>115</ele>
        <time>2026-02-05T09:12:55Z</time>
      </trkpt>
      <trkpt lat="48.68519" lon="2.02375">
        <ele>115.9</ele>
        <time>2026-02-05T09:13:04Z</time>
      </trkpt>
      <trkpt lat="48.68515" lon="2.0239">
        <ele>116.8</ele>
        <time>2026-02-05T09:13:12Z</time>
      </trkpt>
      <trkpt lat="48.68511" lon="2.02402">
        <ele>117.6</ele>
        <time>2026-02-05T09:13:19Z</time>
      </trkpt>
      <trkpt lat="48.68506" lon="2.02415">
        <ele>118.2</ele>
        <time>2026-02-05T09:13:26Z</time>
      </trkpt>
      <trkpt lat="48.68502" lon="2.02429">
        <ele>118.8</ele>
        <time>2026-02-05T09:13:33Z</time>
      </trkpt>
      <trkpt lat="48.68499" lon="2.02442">
        <ele>119.6</ele>
        <time>2026-02-05T09:13:40Z</time>
      </trkpt>
      <trkpt lat="48.68494" lon="2.02455">
        <ele>120.3</ele>
        <time>2026-02-05T09:13:47Z</time>
      </trkpt>
      <trkpt lat="48.68489" lon="2.02469">
        <ele>120.8</ele>
        <time>2026-02-05T09:13:54Z</time>
      </trkpt>
      <trkpt lat="48.68484" lon="2.02481">
        <ele>121.4</ele>
        <time>2026-02-05T09:14:00Z</time>
      </trkpt>
      <trkpt lat="48.68478" lon="2.02493">
        <ele>121.6</ele>
        <time>2026-02-05T09:14:08Z</time>
      </trkpt>
      <trkpt lat="48.68473" lon="2.02506">
        <ele>122.1</ele>
        <time>2026-02-05T09:14:16Z</time>
      </trkpt>
      <trkpt lat="48.68467" lon="2.02516">
        <ele>122.8</ele>
        <time>2026-02-05T09:14:23Z</time>
      </trkpt>
      <trkpt lat="48.68461" lon="2.02528">
        <ele>123.4</ele>
        <time>2026-02-05T09:14:31Z</time>
      </trkpt>
      <trkpt lat="48.68453" lon="2.02537">
        <ele>123.3</ele>
        <time>2026-02-05T09:14:39Z</time>
      </trkpt>
      <trkpt lat="48.68445" lon="2.02547">
        <ele>122.6</ele>
        <time>2026-02-05T09:14:47Z</time>
      </trkpt>
      <trkpt lat="48.68439" lon="2.02556">
        <ele>122.7</ele>
        <time>2026-02-05T09:14:54Z</time>
      </trkpt>
      <trkpt lat="48.68432" lon="2.02566">
        <ele>123.3</ele>
        <time>2026-02-05T09:15:01Z</time>
      </trkpt>
      <trkpt lat="48.68426" lon="2.02577">
        <ele>123.7</ele>
        <time>2026-02-05T09:15:08Z</time>
      </trkpt>
      <trkpt lat="48.68419" lon="2.02586">
        <ele>123.5</ele>
        <time>2026-02-05T09:15:16Z</time>
      </trkpt>
      <trkpt lat="48.68414" lon="2.02599">
        <ele>124</ele>
        <time>2026-02-05T09:15:23Z</time>
      </trkpt>
      <trkpt lat="48.68408" lon="2.02611">
        <ele>124.4</ele>
        <time>2026-02-05T09:15:30Z</time>
      </trkpt>
      <trkpt lat="48.68402" lon="2.02622">
        <ele>124.9</ele>
        <time>2026-02-05T09:15:38Z</time>
      </trkpt>
      <trkpt lat="48.68396" lon="2.02633">
        <ele>124.9</ele>
        <time>2026-02-05T09:15:46Z</time>
      </trkpt>
      <trkpt lat="48.68391" lon="2.02644">
        <ele>124.7</ele>
        <time>2026-02-05T09:15:53Z</time>
      </trkpt>
      <trkpt lat="48.68386" lon="2.02658">
        <ele>124.6</ele>
        <time>2026-02-05T09:16:00Z</time>
      </trkpt>
      <trkpt lat="48.68379" lon="2.0267">
        <ele>124.9</ele>
        <time>2026-02-05T09:16:07Z</time>
      </trkpt>
      <trkpt lat="48.68373" lon="2.02681">
        <ele>125.4</ele>
        <time>2026-02-05T09:16:15Z</time>
      </trkpt>
      <trkpt lat="48.68366" lon="2.02692">
        <ele>125.4</ele>
        <time>2026-02-05T09:16:22Z</time>
      </trkpt>
      <trkpt lat="48.6836" lon="2.02703">
        <ele>126</ele>
        <time>2026-02-05T09:16:29Z</time>
      </trkpt>
      <trkpt lat="48.68353" lon="2.02713">
        <ele>126.7</ele>
        <time>2026-02-05T09:16:36Z</time>
      </trkpt>
      <trkpt lat="48.68344" lon="2.02719">
        <ele>126.6</ele>
        <time>2026-02-05T09:16:43Z</time>
      </trkpt>
      <trkpt lat="48.68336" lon="2.02726">
        <ele>126.6</ele>
        <time>2026-02-05T09:16:51Z</time>
      </trkpt>
      <trkpt lat="48.68328" lon="2.02735">
        <ele>127.1</ele>
        <time>2026-02-05T09:16:59Z</time>
      </trkpt>
      <trkpt lat="48.6832" lon="2.02744">
        <ele>127.2</ele>
        <time>2026-02-05T09:17:07Z</time>
      </trkpt>
      <trkpt lat="48.68312" lon="2.02751">
        <ele>126.8</ele>
        <time>2026-02-05T09:17:14Z</time>
      </trkpt>
      <trkpt lat="48.68302" lon="2.02756">
        <ele>127.2</ele>
        <time>2026-02-05T09:17:22Z</time>
      </trkpt>
      <trkpt lat="48.68294" lon="2.0276">
        <ele>128</ele>
        <time>2026-02-05T09:17:29Z</time>
      </trkpt>
      <trkpt lat="48.68285" lon="2.02762">
        <ele>128.5</ele>
        <time>2026-02-05T09:17:36Z</time>
      </trkpt>
      <trkpt lat="48.68275" lon="2.02764">
        <ele>129.2</ele>
        <time>2026-02-05T09:17:43Z</time>
      </trkpt>
      <trkpt lat="48.68265" lon="2.02766">
        <ele>129.9</ele>
        <time>2026-02-05T09:17:51Z</time>
      </trkpt>
      <trkpt lat="48.68255" lon="2.02769">
        <ele>130.5</ele>
        <time>2026-02-05T09:17:58Z</time>
      </trkpt>
      <trkpt lat="48.68246" lon="2.02772">
        <ele>130.9</ele>
        <time>2026-02-05T09:18:05Z</time>
      </trkpt>
      <trkpt lat="48.68238" lon="2.02777">
        <ele>131.4</ele>
        <time>2026-02-05T09:18:12Z</time>
      </trkpt>
      <trkpt lat="48.68229" lon="2.02785">
        <ele>132.4</ele>
        <time>2026-02-05T09:18:19Z</time>
      </trkpt>
      <trkpt lat="48.68222" lon="2.02794">
        <ele>133.2</ele>
        <time>2026-02-05T09:18:26Z</time>
      </trkpt>
      <trkpt lat="48.68214" lon="2.02801">
        <ele>134</ele>
        <time>2026-02-05T09:18:34Z</time>
      </trkpt>
      <trkpt lat="48.68206" lon="2.0281">
        <ele>135.3</ele>
        <time>2026-02-05T09:18:42Z</time>
      </trkpt>
      <trkpt lat="48.68197" lon="2.02816">
        <ele>136.4</ele>
        <time>2026-02-05T09:18:50Z</time>
      </trkpt>
      <trkpt lat="48.68187" lon="2.02818">
        <ele>137</ele>
        <time>2026-02-05T09:18:58Z</time>
      </trkpt>
      <trkpt lat="48.68177" lon="2.02821">
        <ele>137.8</ele>
        <time>2026-02-05T09:19:06Z</time>
      </trkpt>
      <trkpt lat="48.68168" lon="2.02824">
        <ele>138.6</ele>
        <time>2026-02-05T09:19:14Z</time>
      </trkpt>
      <trkpt lat="48.68158" lon="2.02824">
        <ele>139</ele>
        <time>2026-02-05T09:19:21Z</time>
      </trkpt>
      <trkpt lat="48.68148" lon="2.02826">
        <ele>139.6</ele>
        <time>2026-02-05T09:19:29Z</time>
      </trkpt>
      <trkpt lat="48.6814" lon="2.0282">
        <ele>139</ele>
        <time>2026-02-05T09:19:36Z</time>
      </trkpt>
      <trkpt lat="48.68134" lon="2.02809">
        <ele>138.1</ele>
        <time>2026-02-05T09:19:43Z</time>
      </trkpt>
      <trkpt lat="48.68128" lon="2.02798">
        <ele>137.8</ele>
        <time>2026-02-05T09:19:50Z</time>
      </trkpt>
      <trkpt lat="48.68122" lon="2.02786">
        <ele>138.1</ele>
        <time>2026-02-05T09:19:58Z</time>
      </trkpt>
      <trkpt lat="48.68116" lon="2.02776">
        <ele>138.5</ele>
        <time>2026-02-05T09:20:05Z</time>
      </trkpt>
      <trkpt lat="48.6811" lon="2.02766">
        <ele>139.1</ele>
        <time>2026-02-05T09:20:12Z</time>
      </trkpt>
      <trkpt lat="48.68104" lon="2.02756">
        <ele>139.8</ele>
        <time>2026-02-05T09:20:19Z</time>
      </trkpt>
      <trkpt lat="48.68098" lon="2.02746">
        <ele>140.5</ele>
        <time>2026-02-05T09:20:26Z</time>
      </trkpt>
      <trkpt lat="48.6809" lon="2.02736">
        <ele>141.1</ele>
        <time>2026-02-05T09:20:34Z</time>
      </trkpt>
      <trkpt lat="48.68082" lon="2.02729">
        <ele>141.4</ele>
        <time>2026-02-05T09:20:41Z</time>
      </trkpt>
      <trkpt lat="48.68073" lon="2.02722">
        <ele>142.4</ele>
        <time>2026-02-05T09:20:48Z</time>
      </trkpt>
      <trkpt lat="48.68065" lon="2.02713">
        <ele>143.3</ele>
        <time>2026-02-05T09:20:56Z</time>
      </trkpt>
      <trkpt lat="48.68056" lon="2.02706">
        <ele>143.8</ele>
        <time>2026-02-05T09:21:04Z</time>
      </trkpt>
      <trkpt lat="48.68047" lon="2.02699">
        <ele>144.5</ele>
        <time>2026-02-05T09:21:11Z</time>
      </trkpt>
      <trkpt lat="48.68043" lon="2.02686">
        <ele>144.7</ele>
        <time>2026-02-05T09:21:19Z</time>
      </trkpt>
      <trkpt lat="48.68034" lon="2.02682">
        <ele>145.5</ele>
        <time>2026-02-05T09:21:27Z</time>
      </trkpt>
      <trkpt lat="48.68025" lon="2.02674">
        <ele>145.8</ele>
        <time>2026-02-05T09:21:35Z</time>
      </trkpt>
      <trkpt lat="48.68018" lon="2.02666">
        <ele>146</ele>
        <time>2026-02-05T09:21:42Z</time>
      </trkpt>
      <trkpt lat="48.68011" lon="2.02655">
        <ele>146.5</ele>
        <time>2026-02-05T09:21:49Z</time>
      </trkpt>
      <trkpt lat="48.68005" lon="2.02645">
        <ele>146.4</ele>
        <time>2026-02-05T09:21:56Z</time>
      </trkpt>
      <trkpt lat="48.67998" lon="2.02635">
        <ele>146.6</ele>
        <time>2026-02-05T09:22:03Z</time>
      </trkpt>
      <trkpt lat="48.67991" lon="2.02625">
        <ele>147.8</ele>
        <time>2026-02-05T09:22:11Z</time>
      </trkpt>
      <trkpt lat="48.67984" lon="2.02614">
        <ele>148.3</ele>
        <time>2026-02-05T09:22:18Z</time>
      </trkpt>
      <trkpt lat="48.67977" lon="2.02606">
        <ele>149.1</ele>
        <time>2026-02-05T09:22:25Z</time>
      </trkpt>
      <trkpt lat="48.67969" lon="2.02598">
        <ele>150.6</ele>
        <time>2026-02-05T09:22:32Z</time>
      </trkpt>
      <trkpt lat="48.67962" lon="2.02589">
        <ele>152.3</ele>
        <time>2026-02-05T09:22:40Z</time>
      </trkpt>
      <trkpt lat="48.67954" lon="2.02583">
        <ele>153.1</ele>
        <time>2026-02-05T09:22:49Z</time>
      </trkpt>
      <trkpt lat="48.67945" lon="2.02577">
        <ele>153.6</ele>
        <time>2026-02-05T09:22:58Z</time>
      </trkpt>
      <trkpt lat="48.67937" lon="2.02572">
        <ele>154</ele>
        <time>2026-02-05T09:23:05Z</time>
      </trkpt>
      <trkpt lat="48.67927" lon="2.02568">
        <ele>154</ele>
        <time>2026-02-05T09:23:14Z</time>
      </trkpt>
      <trkpt lat="48.67918" lon="2.02565">
        <ele>153.8</ele>
        <time>2026-02-05T09:23:22Z</time>
      </trkpt>
      <trkpt lat="48.67909" lon="2.02563">
        <ele>153.5</ele>
        <time>2026-02-05T09:23:29Z</time>
      </trkpt>
      <trkpt lat="48.67899" lon="2.02563">
        <ele>153.1</ele>
        <time>2026-02-05T09:23:36Z</time>
      </trkpt>
      <trkpt lat="48.6789" lon="2.02563">
        <ele>152.8</ele>
        <time>2026-02-05T09:23:43Z</time>
      </trkpt>
      <trkpt lat="48.6788" lon="2.02562">
        <ele>152.7</ele>
        <time>2026-02-05T09:23:50Z</time>
      </trkpt>
      <trkpt lat="48.6787" lon="2.02562">
        <ele>152.6</ele>
        <time>2026-02-05T09:23:58Z</time>
      </trkpt>
      <trkpt lat="48.6786" lon="2.02562">
        <ele>152.6</ele>
        <time>2026-02-05T09:24:06Z</time>
      </trkpt>
      <trkpt lat="48.67851" lon="2.02566">
        <ele>152.4</ele>
        <time>2026-02-05T09:24:18Z</time>
      </trkpt>
      <trkpt lat="48.67841" lon="2.02564">
        <ele>152.6</ele>
        <time>2026-02-05T09:24:26Z</time>
      </trkpt>
      <trkpt lat="48.67832" lon="2.02566">
        <ele>152.7</ele>
        <time>2026-02-05T09:24:33Z</time>
      </trkpt>
      <trkpt lat="48.67823" lon="2.02564">
        <ele>153.1</ele>
        <time>2026-02-05T09:24:41Z</time>
      </trkpt>
      <trkpt lat="48.67813" lon="2.02563">
        <ele>153.5</ele>
        <time>2026-02-05T09:24:49Z</time>
      </trkpt>
      <trkpt lat="48.67804" lon="2.02564">
        <ele>153.7</ele>
        <time>2026-02-05T09:24:56Z</time>
      </trkpt>
      <trkpt lat="48.67794" lon="2.02562">
        <ele>154.1</ele>
        <time>2026-02-05T09:25:04Z</time>
      </trkpt>
      <trkpt lat="48.67784" lon="2.02558">
        <ele>154.6</ele>
        <time>2026-02-05T09:25:12Z</time>
      </trkpt>
      <trkpt lat="48.67775" lon="2.02556">
        <ele>154.9</ele>
        <time>2026-02-05T09:25:19Z</time>
      </trkpt>
      <trkpt lat="48.67765" lon="2.02554">
        <ele>154.6</ele>
        <time>2026-02-05T09:25:27Z</time>
      </trkpt>
      <trkpt lat="48.67756" lon="2.02551">
        <ele>154.3</ele>
        <time>2026-02-05T09:25:35Z</time>
      </trkpt>
      <trkpt lat="48.67747" lon="2.02548">
        <ele>154.3</ele>
        <time>2026-02-05T09:25:42Z</time>
      </trkpt>
      <trkpt lat="48.67738" lon="2.02545">
        <ele>154.7</ele>
        <time>2026-02-05T09:25:50Z</time>
      </trkpt>
      <trkpt lat="48.67729" lon="2.02543">
        <ele>154.9</ele>
        <time>2026-02-05T09:25:57Z</time>
      </trkpt>
      <trkpt lat="48.67719" lon="2.02541">
        <ele>155.1</ele>
        <time>2026-02-05T09:26:04Z</time>
      </trkpt>
      <trkpt lat="48.6771" lon="2.02537">
        <ele>155.4</ele>
        <time>2026-02-05T09:26:11Z</time>
      </trkpt>
      <trkpt lat="48.67701" lon="2.02534">
        <ele>155.8</ele>
        <time>2026-02-05T09:26:19Z</time>
      </trkpt>
      <trkpt lat="48.67692" lon="2.02529">
        <ele>156.2</ele>
        <time>2026-02-05T09:26:27Z</time>
      </trkpt>
      <trkpt lat="48.67682" lon="2.02524">
        <ele>156.9</ele>
        <time>2026-02-05T09:26:35Z</time>
      </trkpt>
      <trkpt lat="48.67674" lon="2.02516">
        <ele>157.5</ele>
        <time>2026-02-05T09:26:44Z</time>
      </trkpt>
      <trkpt lat="48.67666" lon="2.02509">
        <ele>158.1</ele>
        <time>2026-02-05T09:26:53Z</time>
      </trkpt>
      <trkpt lat="48.67658" lon="2.02503">
        <ele>159</ele>
        <time>2026-02-05T09:27:05Z</time>
      </trkpt>
      <trkpt lat="48.6765" lon="2.02495">
        <ele>159.9</ele>
        <time>2026-02-05T09:27:25Z</time>
      </trkpt>
      <trkpt lat="48.67642" lon="2.02486">
        <ele>160.7</ele>
        <time>2026-02-05T09:27:35Z</time>
      </trkpt>
      <trkpt lat="48.67634" lon="2.0248">
        <ele>161.6</ele>
        <time>2026-02-05T09:27:44Z</time>
      </trkpt>
      <trkpt lat="48.67625" lon="2.02472">
        <ele>162.5</ele>
        <time>2026-02-05T09:27:53Z</time>
      </trkpt>
      <trkpt lat="48.67616" lon="2.02466">
        <ele>163.5</ele>
        <time>2026-02-05T09:28:01Z</time>
      </trkpt>
      <trkpt lat="48.67608" lon="2.02459">
        <ele>164.2</ele>
        <time>2026-02-05T09:28:09Z</time>
      </trkpt>
      <trkpt lat="48.676" lon="2.02452">
        <ele>164.8</ele>
        <time>2026-02-05T09:28:17Z</time>
      </trkpt>
      <trkpt lat="48.67592" lon="2.02444">
        <ele>165.4</ele>
        <time>2026-02-05T09:28:26Z</time>
      </trkpt>
      <trkpt lat="48.67583" lon="2.02437">
        <ele>166</ele>
        <time>2026-02-05T09:28:35Z</time>
      </trkpt>
      <trkpt lat="48.67578" lon="2.02424">
        <ele>166.1</ele>
        <time>2026-02-05T09:28:44Z</time>
      </trkpt>
      <trkpt lat="48.67583" lon="2.02411">
        <ele>166.2</ele>
        <time>2026-02-05T09:28:55Z</time>
      </trkpt>
      <trkpt lat="48.67593" lon="2.0241">
        <ele>166</ele>
        <time>2026-02-05T09:29:05Z</time>
      </trkpt>
      <trkpt lat="48.67602" lon="2.02412">
        <ele>165.6</ele>
        <time>2026-02-05T09:29:13Z</time>
      </trkpt>
      <trkpt lat="48.67612" lon="2.0241">
        <ele>165.5</ele>
        <time>2026-02-05T09:29:21Z</time>
      </trkpt>
      <trkpt lat="48.67621" lon="2.02409">
        <ele>165.6</ele>
        <time>2026-02-05T09:29:29Z</time>
      </trkpt>
      <trkpt lat="48.6763" lon="2.02406">
        <ele>165.8</ele>
        <time>2026-02-05T09:29:37Z</time>
      </trkpt>
      <trkpt lat="48.67639" lon="2.02404">
        <ele>165.9</ele>
        <time>2026-02-05T09:29:44Z</time>
      </trkpt>
      <trkpt lat="48.67648" lon="2.02402">
        <ele>166.1</ele>
        <time>2026-02-05T09:29:52Z</time>
      </trkpt>
      <trkpt lat="48.67658" lon="2.02399">
        <ele>166.3</ele>
        <time>2026-02-05T09:30:00Z</time>
      </trkpt>
      <trkpt lat="48.67669" lon="2.02396">
        <ele>166.4</ele>
        <time>2026-02-05T09:30:08Z</time>
      </trkpt>
      <trkpt lat="48.67677" lon="2.02394">
        <ele>166.6</ele>
        <time>2026-02-05T09:30:15Z</time>
      </trkpt>
      <trkpt lat="48.67687" lon="2.0239">
        <ele>166.9</ele>
        <time>2026-02-05T09:30:22Z</time>
      </trkpt>
      <trkpt lat="48.67696" lon="2.02388">
        <ele>167.1</ele>
        <time>2026-02-05T09:30:29Z</time>
      </trkpt>
      <trkpt lat="48.67705" lon="2.02384">
        <ele>167.4</ele>
        <time>2026-02-05T09:30:36Z</time>
      </trkpt>
      <trkpt lat="48.67715" lon="2.02389">
        <ele>167</ele>
        <time>2026-02-05T09:30:45Z</time>
      </trkpt>
      <trkpt lat="48.67722" lon="2.02378">
        <ele>167.8</ele>
        <time>2026-02-05T09:31:45Z</time>
      </trkpt>
      <trkpt lat="48.67731" lon="2.02374">
        <ele>167.9</ele>
        <time>2026-02-05T09:31:56Z</time>
      </trkpt>
      <trkpt lat="48.6774" lon="2.0237">
        <ele>167.9</ele>
        <time>2026-02-05T09:32:09Z</time>
      </trkpt>
      <trkpt lat="48.67749" lon="2.02367">
        <ele>167.8</ele>
        <time>2026-02-05T09:32:16Z</time>
      </trkpt>
      <trkpt lat="48.67759" lon="2.02364">
        <ele>167.6</ele>
        <time>2026-02-05T09:32:23Z</time>
      </trkpt>
      <trkpt lat="48.67768" lon="2.02362">
        <ele>167.3</ele>
        <time>2026-02-05T09:32:30Z</time>
      </trkpt>
      <trkpt lat="48.67777" lon="2.02362">
        <ele>167</ele>
        <time>2026-02-05T09:32:38Z</time>
      </trkpt>
      <trkpt lat="48.67787" lon="2.02358">
        <ele>167.1</ele>
        <time>2026-02-05T09:32:46Z</time>
      </trkpt>
      <trkpt lat="48.67798" lon="2.02358">
        <ele>167.2</ele>
        <time>2026-02-05T09:32:53Z</time>
      </trkpt>
      <trkpt lat="48.67807" lon="2.02355">
        <ele>167.5</ele>
        <time>2026-02-05T09:33:01Z</time>
      </trkpt>
      <trkpt lat="48.67816" lon="2.02352">
        <ele>167.9</ele>
        <time>2026-02-05T09:33:08Z</time>
      </trkpt>
      <trkpt lat="48.67826" lon="2.02349">
        <ele>168.3</ele>
        <time>2026-02-05T09:33:16Z</time>
      </trkpt>
      <trkpt lat="48.67836" lon="2.02347">
        <ele>168.6</ele>
        <time>2026-02-05T09:33:23Z</time>
      </trkpt>
      <trkpt lat="48.67845" lon="2.02344">
        <ele>168.8</ele>
        <time>2026-02-05T09:33:30Z</time>
      </trkpt>
      <trkpt lat="48.67855" lon="2.02342">
        <ele>168.9</ele>
        <time>2026-02-05T09:33:38Z</time>
      </trkpt>
      <trkpt lat="48.67864" lon="2.02345">
        <ele>169</ele>
        <time>2026-02-05T09:33:45Z</time>
      </trkpt>
      <trkpt lat="48.67871" lon="2.02355">
        <ele>169.3</ele>
        <time>2026-02-05T09:33:53Z</time>
      </trkpt>
      <trkpt lat="48.67873" lon="2.0237">
        <ele>168.8</ele>
        <time>2026-02-05T09:35:52Z</time>
      </trkpt>
      <trkpt lat="48.67868" lon="2.02381">
        <ele>167.9</ele>
        <time>2026-02-05T09:36:04Z</time>
      </trkpt>
      <trkpt lat="48.67867" lon="2.02394">
        <ele>166.9</ele>
        <time>2026-02-05T09:36:14Z</time>
      </trkpt>
      <trkpt lat="48.67862" lon="2.02408">
        <ele>165.7</ele>
        <time>2026-02-05T09:36:21Z</time>
      </trkpt>
      <trkpt lat="48.6786" lon="2.02423">
        <ele>164.5</ele>
        <time>2026-02-05T09:36:28Z</time>
      </trkpt>
      <trkpt lat="48.6786" lon="2.02436">
        <ele>163.5</ele>
        <time>2026-02-05T09:36:36Z</time>
      </trkpt>
      <trkpt lat="48.67859" lon="2.02451">
        <ele>162.2</ele>
        <time>2026-02-05T09:36:43Z</time>
      </trkpt>
      <trkpt lat="48.67861" lon="2.02465">
        <ele>160.8</ele>
        <time>2026-02-05T09:36:50Z</time>
      </trkpt>
      <trkpt lat="48.6786" lon="2.0248">
        <ele>159.5</ele>
        <time>2026-02-05T09:37:01Z</time>
      </trkpt>
      <trkpt lat="48.67859" lon="2.02495">
        <ele>158.3</ele>
        <time>2026-02-05T09:37:10Z</time>
      </trkpt>
      <trkpt lat="48.67859" lon="2.02509">
        <ele>157</ele>
        <time>2026-02-05T09:37:18Z</time>
      </trkpt>
      <trkpt lat="48.6786" lon="2.02523">
        <ele>155.5</ele>
        <time>2026-02-05T09:37:28Z</time>
      </trkpt>
      <trkpt lat="48.67858" lon="2.02537">
        <ele>154.3</ele>
        <time>2026-02-05T09:37:38Z</time>
      </trkpt>
      <trkpt lat="48.67858" lon="2.02552">
        <ele>153.3</ele>
        <time>2026-02-05T09:37:47Z</time>
      </trkpt>
      <trkpt lat="48.6786" lon="2.02565">
        <ele>152.3</ele>
        <time>2026-02-05T09:37:56Z</time>
      </trkpt>
      <trkpt lat="48.67865" lon="2.02577">
        <ele>151.6</ele>
        <time>2026-02-05T09:38:03Z</time>
      </trkpt>
      <trkpt lat="48.67872" lon="2.02588">
        <ele>151.3</ele>
        <time>2026-02-05T09:38:10Z</time>
      </trkpt>
      <trkpt lat="48.67881" lon="2.02597">
        <ele>151.4</ele>
        <time>2026-02-05T09:38:18Z</time>
      </trkpt>
      <trkpt lat="48.67886" lon="2.02607">
        <ele>151.1</ele>
        <time>2026-02-05T09:38:24Z</time>
      </trkpt>
      <trkpt lat="48.67892" lon="2.02619">
        <ele>151.4</ele>
        <time>2026-02-05T09:38:31Z</time>
      </trkpt>
      <trkpt lat="48.67898" lon="2.02628">
        <ele>152</ele>
        <time>2026-02-05T09:38:38Z</time>
      </trkpt>
      <trkpt lat="48.67906" lon="2.02637">
        <ele>152.6</ele>
        <time>2026-02-05T09:38:45Z</time>
      </trkpt>
      <trkpt lat="48.67915" lon="2.02642">
        <ele>153.2</ele>
        <time>2026-02-05T09:38:52Z</time>
      </trkpt>
      <trkpt lat="48.67925" lon="2.0264">
        <ele>152.8</ele>
        <time>2026-02-05T09:38:59Z</time>
      </trkpt>
      <trkpt lat="48.67933" lon="2.02647">
        <ele>153</ele>
        <time>2026-02-05T09:39:05Z</time>
      </trkpt>
      <trkpt lat="48.67938" lon="2.0266">
        <ele>153.7</ele>
        <time>2026-02-05T09:39:12Z</time>
      </trkpt>
      <trkpt lat="48.67946" lon="2.02668">
        <ele>154.1</ele>
        <time>2026-02-05T09:39:20Z</time>
      </trkpt>
      <trkpt lat="48.67955" lon="2.02671">
        <ele>153.5</ele>
        <time>2026-02-05T09:39:28Z</time>
      </trkpt>
      <trkpt lat="48.67963" lon="2.02677">
        <ele>153.8</ele>
        <time>2026-02-05T09:39:37Z</time>
      </trkpt>
      <trkpt lat="48.67972" lon="2.02683">
        <ele>154</ele>
        <time>2026-02-05T09:39:46Z</time>
      </trkpt>
      <trkpt lat="48.6798" lon="2.02691">
        <ele>154.3</ele>
        <time>2026-02-05T09:39:56Z</time>
      </trkpt>
      <trkpt lat="48.67985" lon="2.02702">
        <ele>155.4</ele>
        <time>2026-02-05T09:40:05Z</time>
      </trkpt>
      <trkpt lat="48.67989" lon="2.02715">
        <ele>156.9</ele>
        <time>2026-02-05T09:40:14Z</time>
      </trkpt>
      <trkpt lat="48.67991" lon="2.02728">
        <ele>158.4</ele>
        <time>2026-02-05T09:40:24Z</time>
      </trkpt>
      <trkpt lat="48.67992" lon="2.02743">
        <ele>159.3</ele>
        <time>2026-02-05T09:40:34Z</time>
      </trkpt>
      <trkpt lat="48.6799" lon="2.02757">
        <ele>160.4</ele>
        <time>2026-02-05T09:40:46Z</time>
      </trkpt>
      <trkpt lat="48.67987" lon="2.0277">
        <ele>161.5</ele>
        <time>2026-02-05T09:40:56Z</time>
      </trkpt>
      <trkpt lat="48.67983" lon="2.02782">
        <ele>162.4</ele>
        <time>2026-02-05T09:41:05Z</time>
      </trkpt>
      <trkpt lat="48.67978" lon="2.02795">
        <ele>163</ele>
        <time>2026-02-05T09:41:13Z</time>
      </trkpt>
      <trkpt lat="48.67978" lon="2.02809">
        <ele>162.9</ele>
        <time>2026-02-05T09:41:21Z</time>
      </trkpt>
      <trkpt lat="48.67979" lon="2.02823">
        <ele>162.3</ele>
        <time>2026-02-05T09:41:28Z</time>
      </trkpt>
      <trkpt lat="48.67979" lon="2.02838">
        <ele>162</ele>
        <time>2026-02-05T09:41:35Z</time>
      </trkpt>
      <trkpt lat="48.67976" lon="2.02853">
        <ele>162.3</ele>
        <time>2026-02-05T09:41:42Z</time>
      </trkpt>
      <trkpt lat="48.67974" lon="2.02868">
        <ele>162.5</ele>
        <time>2026-02-05T09:41:48Z</time>
      </trkpt>
      <trkpt lat="48.67971" lon="2.02882">
        <ele>162.3</ele>
        <time>2026-02-05T09:41:55Z</time>
      </trkpt>
      <trkpt lat="48.67969" lon="2.02896">
        <ele>162.2</ele>
        <time>2026-02-05T09:42:02Z</time>
      </trkpt>
      <trkpt lat="48.67969" lon="2.0291">
        <ele>162.2</ele>
        <time>2026-02-05T09:42:10Z</time>
      </trkpt>
      <trkpt lat="48.67973" lon="2.02923">
        <ele>161.9</ele>
        <time>2026-02-05T09:42:19Z</time>
      </trkpt>
      <trkpt lat="48.67982" lon="2.0293">
        <ele>161.6</ele>
        <time>2026-02-05T09:42:27Z</time>
      </trkpt>
      <trkpt lat="48.67991" lon="2.02934">
        <ele>161.5</ele>
        <time>2026-02-05T09:42:34Z</time>
      </trkpt>
      <trkpt lat="48.68" lon="2.0294">
        <ele>161.7</ele>
        <time>2026-02-05T09:42:41Z</time>
      </trkpt>
      <trkpt lat="48.68009" lon="2.02943">
        <ele>161.9</ele>
        <time>2026-02-05T09:42:48Z</time>
      </trkpt>
      <trkpt lat="48.68018" lon="2.0295">
        <ele>162.4</ele>
        <time>2026-02-05T09:42:56Z</time>
      </trkpt>
      <trkpt lat="48.68027" lon="2.02955">
        <ele>162.8</ele>
        <time>2026-02-05T09:43:04Z</time>
      </trkpt>
      <trkpt lat="48.68034" lon="2.02964">
        <ele>163.6</ele>
        <time>2026-02-05T09:43:12Z</time>
      </trkpt>
      <trkpt lat="48.68042" lon="2.02974">
        <ele>164.6</ele>
        <time>2026-02-05T09:43:20Z</time>
      </trkpt>
      <trkpt lat="48.68051" lon="2.02981">
        <ele>165.2</ele>
        <time>2026-02-05T09:43:28Z</time>
      </trkpt>
      <trkpt lat="48.68061" lon="2.02986">
        <ele>165.3</ele>
        <time>2026-02-05T09:43:36Z</time>
      </trkpt>
      <trkpt lat="48.6807" lon="2.02991">
        <ele>165.1</ele>
        <time>2026-02-05T09:43:43Z</time>
      </trkpt>
      <trkpt lat="48.6808" lon="2.02994">
        <ele>164.9</ele>
        <time>2026-02-05T09:43:51Z</time>
      </trkpt>
      <trkpt lat="48.6809" lon="2.02993">
        <ele>164.5</ele>
        <time>2026-02-05T09:43:59Z</time>
      </trkpt>
      <trkpt lat="48.68099" lon="2.02996">
        <ele>164.3</ele>
        <time>2026-02-05T09:44:07Z</time>
      </trkpt>
      <trkpt lat="48.68109" lon="2.02992">
        <ele>163.8</ele>
        <time>2026-02-05T09:44:19Z</time>
      </trkpt>
      <trkpt lat="48.68119" lon="2.02992">
        <ele>163.8</ele>
        <time>2026-02-05T09:44:26Z</time>
      </trkpt>
      <trkpt lat="48.68129" lon="2.02996">
        <ele>164</ele>
        <time>2026-02-05T09:44:33Z</time>
      </trkpt>
      <trkpt lat="48.68138" lon="2.02997">
        <ele>164</ele>
        <time>2026-02-05T09:44:40Z</time>
      </trkpt>
      <trkpt lat="48.68148" lon="2.02995">
        <ele>164.3</ele>
        <time>2026-02-05T09:44:47Z</time>
      </trkpt>
      <trkpt lat="48.68158" lon="2.02995">
        <ele>164.6</ele>
        <time>2026-02-05T09:44:54Z</time>
      </trkpt>
      <trkpt lat="48.68168" lon="2.02996">
        <ele>164.9</ele>
        <time>2026-02-05T09:45:02Z</time>
      </trkpt>
      <trkpt lat="48.68177" lon="2.02997">
        <ele>165.6</ele>
        <time>2026-02-05T09:45:09Z</time>
      </trkpt>
      <trkpt lat="48.68186" lon="2.02996">
        <ele>166.3</ele>
        <time>2026-02-05T09:45:17Z</time>
      </trkpt>
      <trkpt lat="48.68196" lon="2.02997">
        <ele>167</ele>
        <time>2026-02-05T09:45:25Z</time>
      </trkpt>
      <trkpt lat="48.68206" lon="2.03">
        <ele>167.8</ele>
        <time>2026-02-05T09:45:32Z</time>
      </trkpt>
      <trkpt lat="48.68214" lon="2.03008">
        <ele>168.4</ele>
        <time>2026-02-05T09:45:40Z</time>
      </trkpt>
      <trkpt lat="48.68221" lon="2.03018">
        <ele>168.9</ele>
        <time>2026-02-05T09:45:50Z</time>
      </trkpt>
      <trkpt lat="48.68227" lon="2.03029">
        <ele>169.2</ele>
        <time>2026-02-05T09:45:58Z</time>
      </trkpt>
      <trkpt lat="48.68229" lon="2.03043">
        <ele>169.2</ele>
        <time>2026-02-05T09:46:06Z</time>
      </trkpt>
      <trkpt lat="48.68232" lon="2.03058">
        <ele>169.3</ele>
        <time>2026-02-05T09:46:15Z</time>
      </trkpt>
      <trkpt lat="48.68237" lon="2.0307">
        <ele>169.5</ele>
        <time>2026-02-05T09:46:23Z</time>
      </trkpt>
      <trkpt lat="48.68246" lon="2.03073">
        <ele>169.9</ele>
        <time>2026-02-05T09:46:29Z</time>
      </trkpt>
      <trkpt lat="48.68255" lon="2.0308">
        <ele>170.2</ele>
        <time>2026-02-05T09:46:36Z</time>
      </trkpt>
      <trkpt lat="48.68265" lon="2.0308">
        <ele>170.6</ele>
        <time>2026-02-05T09:46:43Z</time>
      </trkpt>
      <trkpt lat="48.68275" lon="2.03083">
        <ele>170.9</ele>
        <time>2026-02-05T09:46:50Z</time>
      </trkpt>
      <trkpt lat="48.68284" lon="2.03086">
        <ele>171.2</ele>
        <time>2026-02-05T09:46:56Z</time>
      </trkpt>
      <trkpt lat="48.68294" lon="2.03091">
        <ele>171.6</ele>
        <time>2026-02-05T09:47:03Z</time>
      </trkpt>
      <trkpt lat="48.68303" lon="2.03094">
        <ele>171.9</ele>
        <time>2026-02-05T09:47:10Z</time>
      </trkpt>
      <trkpt lat="48.68312" lon="2.03098">
        <ele>172</ele>
        <time>2026-02-05T09:47:17Z</time>
      </trkpt>
      <trkpt lat="48.68323" lon="2.03102">
        <ele>172</ele>
        <time>2026-02-05T09:47:24Z</time>
      </trkpt>
      <trkpt lat="48.68331" lon="2.03106">
        <ele>172</ele>
        <time>2026-02-05T09:47:30Z</time>
      </trkpt>
      <trkpt lat="48.68342" lon="2.03111">
        <ele>172</ele>
        <time>2026-02-05T09:47:37Z</time>
      </trkpt>
      <trkpt lat="48.68351" lon="2.03113">
        <ele>172</ele>
        <time>2026-02-05T09:47:43Z</time>
      </trkpt>
      <trkpt lat="48.6836" lon="2.03119">
        <ele>172</ele>
        <time>2026-02-05T09:47:50Z</time>
      </trkpt>
      <trkpt lat="48.6837" lon="2.03123">
        <ele>172</ele>
        <time>2026-02-05T09:47:57Z</time>
      </trkpt>
      <trkpt lat="48.68379" lon="2.03128">
        <ele>172</ele>
        <time>2026-02-05T09:48:04Z</time>
      </trkpt>
      <trkpt lat="48.68387" lon="2.03132">
        <ele>172</ele>
        <time>2026-02-05T09:48:10Z</time>
      </trkpt>
      <trkpt lat="48.68397" lon="2.03135">
        <ele>172</ele>
        <time>2026-02-05T09:48:16Z</time>
      </trkpt>
      <trkpt lat="48.68406" lon="2.03138">
        <ele>172</ele>
        <time>2026-02-05T09:48:23Z</time>
      </trkpt>
      <trkpt lat="48.68416" lon="2.03133">
        <ele>171.8</ele>
        <time>2026-02-05T09:48:30Z</time>
      </trkpt>
      <trkpt lat="48.68425" lon="2.03127">
        <ele>171.4</ele>
        <time>2026-02-05T09:48:37Z</time>
      </trkpt>
      <trkpt lat="48.68435" lon="2.03123">
        <ele>171.1</ele>
        <time>2026-02-05T09:48:44Z</time>
      </trkpt>
      <trkpt lat="48.68445" lon="2.03122">
        <ele>171</ele>
        <time>2026-02-05T09:48:51Z</time>
      </trkpt>
      <trkpt lat="48.68454" lon="2.03121">
        <ele>171</ele>
        <time>2026-02-05T09:48:58Z</time>
      </trkpt>
      <trkpt lat="48.68464" lon="2.03116">
        <ele>171</ele>
        <time>2026-02-05T09:49:05Z</time>
      </trkpt>
      <trkpt lat="48.68473" lon="2.03114">
        <ele>171</ele>
        <time>2026-02-05T09:49:12Z</time>
      </trkpt>
      <trkpt lat="48.68481" lon="2.03107">
        <ele>171</ele>
        <time>2026-02-05T09:49:18Z</time>
      </trkpt>
      <trkpt lat="48.6849" lon="2.03104">
        <ele>171</ele>
        <time>2026-02-05T09:49:25Z</time>
      </trkpt>
      <trkpt lat="48.685" lon="2.03101">
        <ele>171</ele>
        <time>2026-02-05T09:49:32Z</time>
      </trkpt>
      <trkpt lat="48.68509" lon="2.03102">
        <ele>171</ele>
        <time>2026-02-05T09:49:39Z</time>
      </trkpt>
      <trkpt lat="48.68519" lon="2.031">
        <ele>171</ele>
        <time>2026-02-05T09:49:46Z</time>
      </trkpt>
      <trkpt lat="48.68529" lon="2.03099">
        <ele>171</ele>
        <time>2026-02-05T09:49:53Z</time>
      </trkpt>
      <trkpt lat="48.68539" lon="2.03099">
        <ele>171</ele>
        <time>2026-02-05T09:50:00Z</time>
      </trkpt>
      <trkpt lat="48.68548" lon="2.03095">
        <ele>171</ele>
        <time>2026-02-05T09:50:07Z</time>
      </trkpt>
      <trkpt lat="48.68558" lon="2.0309">
        <ele>171</ele>
        <time>2026-02-05T09:50:14Z</time>
      </trkpt>
      <trkpt lat="48.68568" lon="2.03089">
        <ele>171</ele>
        <time>2026-02-05T09:50:21Z</time>
      </trkpt>
      <trkpt lat="48.68577" lon="2.03088">
        <ele>171</ele>
        <time>2026-02-05T09:50:28Z</time>
      </trkpt>
      <trkpt lat="48.68587" lon="2.03087">
        <ele>171</ele>
        <time>2026-02-05T09:50:35Z</time>
      </trkpt>
      <trkpt lat="48.68597" lon="2.03083">
        <ele>171</ele>
        <time>2026-02-05T09:50:42Z</time>
      </trkpt>
      <trkpt lat="48.68607" lon="2.03082">
        <ele>171</ele>
        <time>2026-02-05T09:50:49Z</time>
      </trkpt>
      <trkpt lat="48.68617" lon="2.03082">
        <ele>170.8</ele>
        <time>2026-02-05T09:50:56Z</time>
      </trkpt>
      <trkpt lat="48.68627" lon="2.03078">
        <ele>170.4</ele>
        <time>2026-02-05T09:51:03Z</time>
      </trkpt>
      <trkpt lat="48.68636" lon="2.03077">
        <ele>170.1</ele>
        <time>2026-02-05T09:51:10Z</time>
      </trkpt>
      <trkpt lat="48.68645" lon="2.0307">
        <ele>169.8</ele>
        <time>2026-02-05T09:51:17Z</time>
      </trkpt>
      <trkpt lat="48.68656" lon="2.03071">
        <ele>169.4</ele>
        <time>2026-02-05T09:51:24Z</time>
      </trkpt>
      <trkpt lat="48.68665" lon="2.03074">
        <ele>169</ele>
        <time>2026-02-05T09:51:31Z</time>
      </trkpt>
      <trkpt lat="48.68675" lon="2.0308">
        <ele>168.7</ele>
        <time>2026-02-05T09:51:38Z</time>
      </trkpt>
      <trkpt lat="48.68683" lon="2.03086">
        <ele>168.4</ele>
        <time>2026-02-05T09:51:45Z</time>
      </trkpt>
      <trkpt lat="48.68691" lon="2.03094">
        <ele>168.1</ele>
        <time>2026-02-05T09:51:52Z</time>
      </trkpt>
      <trkpt lat="48.687" lon="2.03099">
        <ele>167.9</ele>
        <time>2026-02-05T09:51:59Z</time>
      </trkpt>
      <trkpt lat="48.68709" lon="2.03101">
        <ele>167.7</ele>
        <time>2026-02-05T09:52:05Z</time>
      </trkpt>
      <trkpt lat="48.68718" lon="2.03103">
        <ele>167.4</ele>
        <time>2026-02-05T09:52:12Z</time>
      </trkpt>
      <trkpt lat="48.68728" lon="2.03106">
        <ele>167.1</ele>
        <time>2026-02-05T09:52:20Z</time>
      </trkpt>
      <trkpt lat="48.68737" lon="2.03105">
        <ele>167.1</ele>
        <time>2026-02-05T09:52:27Z</time>
      </trkpt>
      <trkpt lat="48.68746" lon="2.0311">
        <ele>167</ele>
        <time>2026-02-05T09:52:34Z</time>
      </trkpt>
      <trkpt lat="48.68755" lon="2.03114">
        <ele>166.7</ele>
        <time>2026-02-05T09:52:42Z</time>
      </trkpt>
      <trkpt lat="48.68764" lon="2.03115">
        <ele>166.4</ele>
        <time>2026-02-05T09:52:50Z</time>
      </trkpt>
      <trkpt lat="48.68773" lon="2.03115">
        <ele>166.1</ele>
        <time>2026-02-05T09:52:58Z</time>
      </trkpt>
      <trkpt lat="48.68782" lon="2.0312">
        <ele>165.8</ele>
        <time>2026-02-05T09:53:06Z</time>
      </trkpt>
      <trkpt lat="48.68792" lon="2.0312">
        <ele>165.5</ele>
        <time>2026-02-05T09:53:13Z</time>
      </trkpt>
      <trkpt lat="48.68801" lon="2.03122">
        <ele>165.2</ele>
        <time>2026-02-05T09:53:20Z</time>
      </trkpt>
      <trkpt lat="48.6881" lon="2.03127">
        <ele>165</ele>
        <time>2026-02-05T09:53:27Z</time>
      </trkpt>
      <trkpt lat="48.6882" lon="2.03127">
        <ele>165</ele>
        <time>2026-02-05T09:53:34Z</time>
      </trkpt>
      <trkpt lat="48.6883" lon="2.03127">
        <ele>165</ele>
        <time>2026-02-05T09:53:41Z</time>
      </trkpt>
      <trkpt lat="48.68839" lon="2.03129">
        <ele>164.8</ele>
        <time>2026-02-05T09:53:48Z</time>
      </trkpt>
      <trkpt lat="48.68848" lon="2.03132">
        <ele>164.5</ele>
        <time>2026-02-05T09:53:54Z</time>
      </trkpt>
      <trkpt lat="48.68857" lon="2.03133">
        <ele>164.1</ele>
        <time>2026-02-05T09:54:00Z</time>
      </trkpt>
      <trkpt lat="48.68866" lon="2.03134">
        <ele>164</ele>
        <time>2026-02-05T09:54:06Z</time>
      </trkpt>
      <trkpt lat="48.68875" lon="2.03133">
        <ele>164</ele>
        <time>2026-02-05T09:54:12Z</time>
      </trkpt>
      <trkpt lat="48.68884" lon="2.03137">
        <ele>164</ele>
        <time>2026-02-05T09:54:20Z</time>
      </trkpt>
      <trkpt lat="48.68895" lon="2.03138">
        <ele>163.8</ele>
        <time>2026-02-05T09:54:29Z</time>
      </trkpt>
      <trkpt lat="48.68904" lon="2.03138">
        <ele>163.5</ele>
        <time>2026-02-05T09:54:35Z</time>
      </trkpt>
      <trkpt lat="48.68914" lon="2.03139">
        <ele>163.1</ele>
        <time>2026-02-05T09:54:42Z</time>
      </trkpt>
      <trkpt lat="48.68919" lon="2.03152">
        <ele>163</ele>
        <time>2026-02-05T09:54:52Z</time>
      </trkpt>
      <trkpt lat="48.68911" lon="2.03162">
        <ele>163.2</ele>
        <time>2026-02-05T09:55:00Z</time>
      </trkpt>
      <trkpt lat="48.68906" lon="2.03174">
        <ele>163.4</ele>
        <time>2026-02-05T09:55:08Z</time>
      </trkpt>
      <trkpt lat="48.68905" lon="2.03189">
        <ele>163.4</ele>
        <time>2026-02-05T09:55:16Z</time>
      </trkpt>
      <trkpt lat="48.68907" lon="2.03204">
        <ele>163.2</ele>
        <time>2026-02-05T09:55:24Z</time>
      </trkpt>
      <trkpt lat="48.68909" lon="2.03218">
        <ele>163</ele>
        <time>2026-02-05T09:55:31Z</time>
      </trkpt>
      <trkpt lat="48.68914" lon="2.0323">
        <ele>162.8</ele>
        <time>2026-02-05T09:55:38Z</time>
      </trkpt>
      <trkpt lat="48.68913" lon="2.03244">
        <ele>162.3</ele>
        <time>2026-02-05T09:55:46Z</time>
      </trkpt>
      <trkpt lat="48.68923" lon="2.03247">
        <ele>162.1</ele>
        <time>2026-02-05T09:55:53Z</time>
      </trkpt>
      <trkpt lat="48.68932" lon="2.03254">
        <ele>162</ele>
        <time>2026-02-05T09:56:00Z</time>
      </trkpt>
      <trkpt lat="48.68936" lon="2.03267">
        <ele>162</ele>
        <time>2026-02-05T09:56:07Z</time>
      </trkpt>
      <trkpt lat="48.68941" lon="2.03281">
        <ele>161.9</ele>
        <time>2026-02-05T09:56:15Z</time>
      </trkpt>
      <trkpt lat="48.6895" lon="2.03285">
        <ele>161.6</ele>
        <time>2026-02-05T09:56:22Z</time>
      </trkpt>
      <trkpt lat="48.68959" lon="2.03287">
        <ele>161.3</ele>
        <time>2026-02-05T09:56:29Z</time>
      </trkpt>
      <trkpt lat="48.68969" lon="2.0329">
        <ele>161.1</ele>
        <time>2026-02-05T09:56:37Z</time>
      </trkpt>
      <trkpt lat="48.68978" lon="2.03294">
        <ele>160.9</ele>
        <time>2026-02-05T09:56:44Z</time>
      </trkpt>
      <trkpt lat="48.68987" lon="2.03298">
        <ele>160.6</ele>
        <time>2026-02-05T09:56:52Z</time>
      </trkpt>
      <trkpt lat="48.68996" lon="2.03303">
        <ele>160.2</ele>
        <time>2026-02-05T09:56:59Z</time>
      </trkpt>
      <trkpt lat="48.69005" lon="2.03306">
        <ele>160</ele>
        <time>2026-02-05T09:57:06Z</time>
      </trkpt>
      <trkpt lat="48.69014" lon="2.0331">
        <ele>160</ele>
        <time>2026-02-05T09:57:14Z</time>
      </trkpt>
      <trkpt lat="48.69023" lon="2.03316">
        <ele>160</ele>
        <time>2026-02-05T09:57:21Z</time>
      </trkpt>
      <trkpt lat="48.69033" lon="2.03319">
        <ele>160</ele>
        <time>2026-02-05T09:57:28Z</time>
      </trkpt>
      <trkpt lat="48.69042" lon="2.03322">
        <ele>160</ele>
        <time>2026-02-05T09:57:35Z</time>
      </trkpt>
      <trkpt lat="48.69052" lon="2.03326">
        <ele>160</ele>
        <time>2026-02-05T09:57:42Z</time>
      </trkpt>
      <trkpt lat="48.69061" lon="2.0333">
        <ele>159.8</ele>
        <time>2026-02-05T09:57:49Z</time>
      </trkpt>
      <trkpt lat="48.69071" lon="2.03334">
        <ele>159.4</ele>
        <time>2026-02-05T09:57:56Z</time>
      </trkpt>
      <trkpt lat="48.69081" lon="2.03337">
        <ele>159.1</ele>
        <time>2026-02-05T09:58:03Z</time>
      </trkpt>
      <trkpt lat="48.69091" lon="2.03341">
        <ele>158.7</ele>
        <time>2026-02-05T09:58:10Z</time>
      </trkpt>
      <trkpt lat="48.69101" lon="2.03346">
        <ele>158.4</ele>
        <time>2026-02-05T09:58:17Z</time>
      </trkpt>
      <trkpt lat="48.6911" lon="2.03349">
        <ele>158</ele>
        <time>2026-02-05T09:58:24Z</time>
      </trkpt>
      <trkpt lat="48.6912" lon="2.03355">
        <ele>157.9</ele>
        <time>2026-02-05T09:58:31Z</time>
      </trkpt>
      <trkpt lat="48.69129" lon="2.03361">
        <ele>158</ele>
        <time>2026-02-05T09:58:38Z</time>
      </trkpt>
      <trkpt lat="48.69124" lon="2.03373">
        <ele>158</ele>
        <time>2026-02-05T09:58:47Z</time>
      </trkpt>
      <trkpt lat="48.69119" lon="2.03387">
        <ele>158</ele>
        <time>2026-02-05T09:58:55Z</time>
      </trkpt>
      <trkpt lat="48.69115" lon="2.034">
        <ele>158</ele>
        <time>2026-02-05T09:59:02Z</time>
      </trkpt>
      <trkpt lat="48.69114" lon="2.03415">
        <ele>158</ele>
        <time>2026-02-05T09:59:09Z</time>
      </trkpt>
      <trkpt lat="48.6912" lon="2.03427">
        <ele>157.9</ele>
        <time>2026-02-05T09:59:16Z</time>
      </trkpt>
      <trkpt lat="48.69126" lon="2.0344">
        <ele>157.6</ele>
        <time>2026-02-05T09:59:23Z</time>
      </trkpt>
      <trkpt lat="48.69132" lon="2.0345">
        <ele>157.2</ele>
        <time>2026-02-05T09:59:29Z</time>
      </trkpt>
      <trkpt lat="48.6914" lon="2.0346">
        <ele>157</ele>
        <time>2026-02-05T09:59:36Z</time>
      </trkpt>
      <trkpt lat="48.69147" lon="2.0347">
        <ele>156.7</ele>
        <time>2026-02-05T09:59:42Z</time>
      </trkpt>
      <trkpt lat="48.69155" lon="2.03481">
        <ele>156.4</ele>
        <time>2026-02-05T09:59:49Z</time>
      </trkpt>
      <trkpt lat="48.69161" lon="2.03491">
        <ele>156.2</ele>
        <time>2026-02-05T09:59:55Z</time>
      </trkpt>
      <trkpt lat="48.69168" lon="2.035">
        <ele>156</ele>
        <time>2026-02-05T10:00:01Z</time>
      </trkpt>
      <trkpt lat="48.69177" lon="2.03503">
        <ele>156</ele>
        <time>2026-02-05T10:00:10Z</time>
      </trkpt>
      <trkpt lat="48.69187" lon="2.03509">
        <ele>156</ele>
        <time>2026-02-05T10:00:16Z</time>
      </trkpt>
      <trkpt lat="48.69196" lon="2.03514">
        <ele>155.9</ele>
        <time>2026-02-05T10:00:21Z</time>
      </trkpt>
      <trkpt lat="48.69205" lon="2.03519">
        <ele>155.6</ele>
        <time>2026-02-05T10:00:28Z</time>
      </trkpt>
      <trkpt lat="48.69214" lon="2.03526">
        <ele>155.3</ele>
        <time>2026-02-05T10:00:36Z</time>
      </trkpt>
      <trkpt lat="48.69222" lon="2.03533">
        <ele>155</ele>
        <time>2026-02-05T10:00:47Z</time>
      </trkpt>
      <trkpt lat="48.69232" lon="2.03539">
        <ele>154.4</ele>
        <time>2026-02-05T10:00:52Z</time>
      </trkpt>
      <trkpt lat="48.69242" lon="2.03543">
        <ele>154</ele>
        <time>2026-02-05T10:00:58Z</time>
      </trkpt>
      <trkpt lat="48.69251" lon="2.0355">
        <ele>153.8</ele>
        <time>2026-02-05T10:01:05Z</time>
      </trkpt>
      <trkpt lat="48.69259" lon="2.03555">
        <ele>153.3</ele>
        <time>2026-02-05T10:01:11Z</time>
      </trkpt>
      <trkpt lat="48.69269" lon="2.03561">
        <ele>152.7</ele>
        <time>2026-02-05T10:01:18Z</time>
      </trkpt>
      <trkpt lat="48.69277" lon="2.03567">
        <ele>152</ele>
        <time>2026-02-05T10:01:25Z</time>
      </trkpt>
      <trkpt lat="48.69286" lon="2.03572">
        <ele>151.4</ele>
        <time>2026-02-05T10:01:31Z</time>
      </trkpt>
      <trkpt lat="48.69294" lon="2.03578">
        <ele>150.8</ele>
        <time>2026-02-05T10:01:37Z</time>
      </trkpt>
      <trkpt lat="48.69302" lon="2.03585">
        <ele>150.3</ele>
        <time>2026-02-05T10:01:44Z</time>
      </trkpt>
      <trkpt lat="48.6931" lon="2.03592">
        <ele>150</ele>
        <time>2026-02-05T10:01:51Z</time>
      </trkpt>
      <trkpt lat="48.69319" lon="2.03598">
        <ele>149.6</ele>
        <time>2026-02-05T10:01:58Z</time>
      </trkpt>
      <trkpt lat="48.69327" lon="2.03605">
        <ele>149.2</ele>
        <time>2026-02-05T10:02:05Z</time>
      </trkpt>
      <trkpt lat="48.69335" lon="2.03611">
        <ele>148.9</ele>
        <time>2026-02-05T10:02:12Z</time>
      </trkpt>
      <trkpt lat="48.69344" lon="2.03615">
        <ele>148.9</ele>
        <time>2026-02-05T10:02:19Z</time>
      </trkpt>
      <trkpt lat="48.69352" lon="2.0362">
        <ele>149</ele>
        <time>2026-02-05T10:02:25Z</time>
      </trkpt>
      <trkpt lat="48.69361" lon="2.03628">
        <ele>149.2</ele>
        <time>2026-02-05T10:02:32Z</time>
      </trkpt>
      <trkpt lat="48.69371" lon="2.03633">
        <ele>150.2</ele>
        <time>2026-02-05T10:02:39Z</time>
      </trkpt>
      <trkpt lat="48.69379" lon="2.03638">
        <ele>151.2</ele>
        <time>2026-02-05T10:02:46Z</time>
      </trkpt>
      <trkpt lat="48.69389" lon="2.03642">
        <ele>152.2</ele>
        <time>2026-02-05T10:02:53Z</time>
      </trkpt>
      <trkpt lat="48.69398" lon="2.0365">
        <ele>153.4</ele>
        <time>2026-02-05T10:03:01Z</time>
      </trkpt>
      <trkpt lat="48.69406" lon="2.03655">
        <ele>154.4</ele>
        <time>2026-02-05T10:03:08Z</time>
      </trkpt>
      <trkpt lat="48.69415" lon="2.03661">
        <ele>155.4</ele>
        <time>2026-02-05T10:03:15Z</time>
      </trkpt>
      <trkpt lat="48.69423" lon="2.03664">
        <ele>156.3</ele>
        <time>2026-02-05T10:03:23Z</time>
      </trkpt>
      <trkpt lat="48.69431" lon="2.03675">
        <ele>157.2</ele>
        <time>2026-02-05T10:03:31Z</time>
      </trkpt>
      <trkpt lat="48.6944" lon="2.03681">
        <ele>157.8</ele>
        <time>2026-02-05T10:03:39Z</time>
      </trkpt>
      <trkpt lat="48.69449" lon="2.03687">
        <ele>158.3</ele>
        <time>2026-02-05T10:03:48Z</time>
      </trkpt>
      <trkpt lat="48.69456" lon="2.03699">
        <ele>158.9</ele>
        <time>2026-02-05T10:03:57Z</time>
      </trkpt>
      <trkpt lat="48.69457" lon="2.03713">
        <ele>159.3</ele>
        <time>2026-02-05T10:04:05Z</time>
      </trkpt>
      <trkpt lat="48.69466" lon="2.03718">
        <ele>159.7</ele>
        <time>2026-02-05T10:04:14Z</time>
      </trkpt>
      <trkpt lat="48.69471" lon="2.0373">
        <ele>160.2</ele>
        <time>2026-02-05T10:04:22Z</time>
      </trkpt>
      <trkpt lat="48.69467" lon="2.03743">
        <ele>160.5</ele>
        <time>2026-02-05T10:04:29Z</time>
      </trkpt>
      <trkpt lat="48.69464" lon="2.03756">
        <ele>160.4</ele>
        <time>2026-02-05T10:04:36Z</time>
      </trkpt>
      <trkpt lat="48.69456" lon="2.03766">
        <ele>160.2</ele>
        <time>2026-02-05T10:04:44Z</time>
      </trkpt>
      <trkpt lat="48.69452" lon="2.03779">
        <ele>160.3</ele>
        <time>2026-02-05T10:04:52Z</time>
      </trkpt>
      <trkpt lat="48.69448" lon="2.03794">
        <ele>160.1</ele>
        <time>2026-02-05T10:05:00Z</time>
      </trkpt>
      <trkpt lat="48.69445" lon="2.03809">
        <ele>160</ele>
        <time>2026-02-05T10:05:08Z</time>
      </trkpt>
      <trkpt lat="48.69441" lon="2.03824">
        <ele>159.9</ele>
        <time>2026-02-05T10:05:15Z</time>
      </trkpt>
      <trkpt lat="48.69438" lon="2.03839">
        <ele>159.8</ele>
        <time>2026-02-05T10:05:22Z</time>
      </trkpt>
      <trkpt lat="48.69435" lon="2.03853">
        <ele>159.6</ele>
        <time>2026-02-05T10:05:29Z</time>
      </trkpt>
      <trkpt lat="48.69429" lon="2.03865">
        <ele>159.5</ele>
        <time>2026-02-05T10:05:38Z</time>
      </trkpt>
      <trkpt lat="48.69426" lon="2.0388">
        <ele>159.5</ele>
        <time>2026-02-05T10:05:46Z</time>
      </trkpt>
      <trkpt lat="48.69423" lon="2.03894">
        <ele>159.5</ele>
        <time>2026-02-05T10:05:53Z</time>
      </trkpt>
      <trkpt lat="48.6942" lon="2.03907">
        <ele>159.2</ele>
        <time>2026-02-05T10:06:00Z</time>
      </trkpt>
      <trkpt lat="48.69418" lon="2.03922">
        <ele>159.1</ele>
        <time>2026-02-05T10:06:08Z</time>
      </trkpt>
      <trkpt lat="48.69421" lon="2.03936">
        <ele>159.3</ele>
        <time>2026-02-05T10:06:16Z</time>
      </trkpt>
      <trkpt lat="48.69422" lon="2.03951">
        <ele>159.6</ele>
        <time>2026-02-05T10:06:24Z</time>
      </trkpt>
      <trkpt lat="48.69424" lon="2.03966">
        <ele>160.1</ele>
        <time>2026-02-05T10:06:31Z</time>
      </trkpt>
      <trkpt lat="48.69427" lon="2.0398">
        <ele>160.4</ele>
        <time>2026-02-05T10:06:39Z</time>
      </trkpt>
      <trkpt lat="48.6943" lon="2.03995">
        <ele>160.5</ele>
        <time>2026-02-05T10:06:47Z</time>
      </trkpt>
      <trkpt lat="48.6943" lon="2.04009">
        <ele>160.6</ele>
        <time>2026-02-05T10:06:53Z</time>
      </trkpt>
      <trkpt lat="48.69432" lon="2.04022">
        <ele>161</ele>
        <time>2026-02-05T10:07:01Z</time>
      </trkpt>
      <trkpt lat="48.69432" lon="2.04036">
        <ele>161.2</ele>
        <time>2026-02-05T10:07:09Z</time>
      </trkpt>
      <trkpt lat="48.69433" lon="2.04051">
        <ele>161.5</ele>
        <time>2026-02-05T10:07:17Z</time>
      </trkpt>
      <trkpt lat="48.69434" lon="2.04067">
        <ele>161.6</ele>
        <time>2026-02-05T10:07:25Z</time>
      </trkpt>
      <trkpt lat="48.69437" lon="2.04081">
        <ele>161.7</ele>
        <time>2026-02-05T10:07:33Z</time>
      </trkpt>
      <trkpt lat="48.69437" lon="2.04096">
        <ele>162.1</ele>
        <time>2026-02-05T10:07:41Z</time>
      </trkpt>
      <trkpt lat="48.69439" lon="2.0411">
        <ele>162.5</ele>
        <time>2026-02-05T10:07:48Z</time>
      </trkpt>
      <trkpt lat="48.69438" lon="2.04124">
        <ele>162.7</ele>
        <time>2026-02-05T10:07:56Z</time>
      </trkpt>
      <trkpt lat="48.6944" lon="2.04138">
        <ele>162.8</ele>
        <time>2026-02-05T10:08:03Z</time>
      </trkpt>
      <trkpt lat="48.6944" lon="2.04152">
        <ele>162.8</ele>
        <time>2026-02-05T10:08:10Z</time>
      </trkpt>
      <trkpt lat="48.69439" lon="2.04166">
        <ele>162.8</ele>
        <time>2026-02-05T10:08:17Z</time>
      </trkpt>
      <trkpt lat="48.6944" lon="2.0418">
        <ele>163.3</ele>
        <time>2026-02-05T10:08:24Z</time>
      </trkpt>
      <trkpt lat="48.69441" lon="2.04195">
        <ele>163.7</ele>
        <time>2026-02-05T10:08:31Z</time>
      </trkpt>
      <trkpt lat="48.6944" lon="2.0421">
        <ele>163.8</ele>
        <time>2026-02-05T10:08:38Z</time>
      </trkpt>
      <trkpt lat="48.6944" lon="2.04225">
        <ele>163.8</ele>
        <time>2026-02-05T10:08:45Z</time>
      </trkpt>
      <trkpt lat="48.69439" lon="2.04239">
        <ele>163.8</ele>
        <time>2026-02-05T10:08:52Z</time>
      </trkpt>
      <trkpt lat="48.69438" lon="2.04253">
        <ele>163.8</ele>
        <time>2026-02-05T10:08:59Z</time>
      </trkpt>
      <trkpt lat="48.69435" lon="2.04266">
        <ele>163.7</ele>
        <time>2026-02-05T10:09:07Z</time>
      </trkpt>
      <trkpt lat="48.69435" lon="2.04281">
        <ele>163.7</ele>
        <time>2026-02-05T10:09:14Z</time>
      </trkpt>
      <trkpt lat="48.69436" lon="2.04296">
        <ele>163.7</ele>
        <time>2026-02-05T10:09:21Z</time>
      </trkpt>
      <trkpt lat="48.69437" lon="2.0431">
        <ele>163.7</ele>
        <time>2026-02-05T10:09:28Z</time>
      </trkpt>
      <trkpt lat="48.69437" lon="2.04324">
        <ele>163.7</ele>
        <time>2026-02-05T10:09:35Z</time>
      </trkpt>
      <trkpt lat="48.69437" lon="2.04339">
        <ele>163.8</ele>
        <time>2026-02-05T10:09:42Z</time>
      </trkpt>
      <trkpt lat="48.69437" lon="2.04354">
        <ele>163.9</ele>
        <time>2026-02-05T10:09:49Z</time>
      </trkpt>
      <trkpt lat="48.69438" lon="2.04368">
        <ele>164.2</ele>
        <time>2026-02-05T10:09:56Z</time>
      </trkpt>
      <trkpt lat="48.69437" lon="2.04382">
        <ele>164.6</ele>
        <time>2026-02-05T10:10:03Z</time>
      </trkpt>
      <trkpt lat="48.69438" lon="2.04398">
        <ele>164.8</ele>
        <time>2026-02-05T10:10:11Z</time>
      </trkpt>
      <trkpt lat="48.69439" lon="2.04413">
        <ele>164.8</ele>
        <time>2026-02-05T10:10:18Z</time>
      </trkpt>
      <trkpt lat="48.69438" lon="2.04426">
        <ele>164.8</ele>
        <time>2026-02-05T10:10:25Z</time>
      </trkpt>
      <trkpt lat="48.69437" lon="2.0444">
        <ele>164.7</ele>
        <time>2026-02-05T10:10:32Z</time>
      </trkpt>
      <trkpt lat="48.69437" lon="2.04454">
        <ele>164.7</ele>
        <time>2026-02-05T10:10:39Z</time>
      </trkpt>
      <trkpt lat="48.69437" lon="2.04469">
        <ele>164.7</ele>
        <time>2026-02-05T10:10:46Z</time>
      </trkpt>
      <trkpt lat="48.69435" lon="2.04483">
        <ele>164.7</ele>
        <time>2026-02-05T10:10:55Z</time>
      </trkpt>
      <trkpt lat="48.69433" lon="2.04497">
        <ele>164.6</ele>
        <time>2026-02-05T10:11:06Z</time>
      </trkpt>
      <trkpt lat="48.69431" lon="2.04511">
        <ele>164.7</ele>
        <time>2026-02-05T10:11:15Z</time>
      </trkpt>
      <trkpt lat="48.69432" lon="2.04524">
        <ele>164.9</ele>
        <time>2026-02-05T10:11:22Z</time>
      </trkpt>
      <trkpt lat="48.69433" lon="2.04538">
        <ele>165</ele>
        <time>2026-02-05T10:11:30Z</time>
      </trkpt>
      <trkpt lat="48.69432" lon="2.04552">
        <ele>165</ele>
        <time>2026-02-05T10:11:38Z</time>
      </trkpt>
      <trkpt lat="48.69439" lon="2.04561">
        <ele>165.2</ele>
        <time>2026-02-05T10:11:46Z</time>
      </trkpt>
      <trkpt lat="48.69438" lon="2.04576">
        <ele>165.6</ele>
        <time>2026-02-05T10:11:54Z</time>
      </trkpt>
      <trkpt lat="48.69437" lon="2.0459">
        <ele>165.7</ele>
        <time>2026-02-05T10:12:01Z</time>
      </trkpt>
      <trkpt lat="48.69434" lon="2.04604">
        <ele>165.6</ele>
        <time>2026-02-05T10:12:09Z</time>
      </trkpt>
      <trkpt lat="48.69427" lon="2.04614">
        <ele>165.4</ele>
        <time>2026-02-05T10:12:17Z</time>
      </trkpt>
      <trkpt lat="48.6942" lon="2.04625">
        <ele>165.1</ele>
        <time>2026-02-05T10:12:25Z</time>
      </trkpt>
      <trkpt lat="48.69415" lon="2.04638">
        <ele>165</ele>
        <time>2026-02-05T10:12:32Z</time>
      </trkpt>
      <trkpt lat="48.69412" lon="2.04653">
        <ele>165</ele>
        <time>2026-02-05T10:12:39Z</time>
      </trkpt>
      <trkpt lat="48.69411" lon="2.04667">
        <ele>165</ele>
        <time>2026-02-05T10:12:46Z</time>
      </trkpt>
      <trkpt lat="48.69407" lon="2.04681">
        <ele>165</ele>
        <time>2026-02-05T10:12:53Z</time>
      </trkpt>
      <trkpt lat="48.69404" lon="2.04694">
        <ele>165</ele>
        <time>2026-02-05T10:13:00Z</time>
      </trkpt>
      <trkpt lat="48.69401" lon="2.04708">
        <ele>165</ele>
        <time>2026-02-05T10:13:07Z</time>
      </trkpt>
      <trkpt lat="48.694" lon="2.04723">
        <ele>165</ele>
        <time>2026-02-05T10:13:14Z</time>
      </trkpt>
      <trkpt lat="48.69402" lon="2.04737">
        <ele>165</ele>
        <time>2026-02-05T10:13:21Z</time>
      </trkpt>
      <trkpt lat="48.69406" lon="2.04751">
        <ele>165</ele>
        <time>2026-02-05T10:13:28Z</time>
      </trkpt>
      <trkpt lat="48.69405" lon="2.04765">
        <ele>165</ele>
        <time>2026-02-05T10:13:33Z</time>
      </trkpt>
      <trkpt lat="48.694" lon="2.04778">
        <ele>165</ele>
        <time>2026-02-05T10:13:40Z</time>
      </trkpt>
      <trkpt lat="48.69398" lon="2.04792">
        <ele>165</ele>
        <time>2026-02-05T10:13:49Z</time>
      </trkpt>
      <trkpt lat="48.69396" lon="2.04807">
        <ele>165</ele>
        <time>2026-02-05T10:13:57Z</time>
      </trkpt>
      <trkpt lat="48.69397" lon="2.04823">
        <ele>165</ele>
        <time>2026-02-05T10:14:04Z</time>
      </trkpt>
      <trkpt lat="48.69399" lon="2.04837">
        <ele>165</ele>
        <time>2026-02-05T10:14:10Z</time>
      </trkpt>
      <trkpt lat="48.69398" lon="2.04852">
        <ele>165</ele>
        <time>2026-02-05T10:14:17Z</time>
      </trkpt>
      <trkpt lat="48.69397" lon="2.04868">
        <ele>165</ele>
        <time>2026-02-05T10:14:24Z</time>
      </trkpt>
      <trkpt lat="48.69398" lon="2.04883">
        <ele>165</ele>
        <time>2026-02-05T10:14:31Z</time>
      </trkpt>
      <trkpt lat="48.69402" lon="2.04897">
        <ele>165</ele>
        <time>2026-02-05T10:14:38Z</time>
      </trkpt>
      <trkpt lat="48.69404" lon="2.04911">
        <ele>165</ele>
        <time>2026-02-05T10:14:44Z</time>
      </trkpt>
      <trkpt lat="48.69405" lon="2.04925">
        <ele>165</ele>
        <time>2026-02-05T10:14:51Z</time>
      </trkpt>
      <trkpt lat="48.69406" lon="2.04939">
        <ele>165</ele>
        <time>2026-02-05T10:14:58Z</time>
      </trkpt>
      <trkpt lat="48.69408" lon="2.04955">
        <ele>165</ele>
        <time>2026-02-05T10:15:05Z</time>
      </trkpt>
      <trkpt lat="48.69408" lon="2.04969">
        <ele>165</ele>
        <time>2026-02-05T10:15:12Z</time>
      </trkpt>
      <trkpt lat="48.69407" lon="2.04983">
        <ele>165</ele>
        <time>2026-02-05T10:15:19Z</time>
      </trkpt>
      <trkpt lat="48.69412" lon="2.04997">
        <ele>165</ele>
        <time>2026-02-05T10:15:26Z</time>
      </trkpt>
      <trkpt lat="48.69416" lon="2.05011">
        <ele>165</ele>
        <time>2026-02-05T10:15:33Z</time>
      </trkpt>
      <trkpt lat="48.69418" lon="2.05025">
        <ele>165</ele>
        <time>2026-02-05T10:15:39Z</time>
      </trkpt>
      <trkpt lat="48.69422" lon="2.05038">
        <ele>165</ele>
        <time>2026-02-05T10:15:46Z</time>
      </trkpt>
      <trkpt lat="48.69428" lon="2.05051">
        <ele>165</ele>
        <time>2026-02-05T10:15:53Z</time>
      </trkpt>
      <trkpt lat="48.69431" lon="2.05064">
        <ele>165</ele>
        <time>2026-02-05T10:15:59Z</time>
      </trkpt>
      <trkpt lat="48.69433" lon="2.05078">
        <ele>165</ele>
        <time>2026-02-05T10:16:05Z</time>
      </trkpt>
      <trkpt lat="48.69439" lon="2.0509">
        <ele>165</ele>
        <time>2026-02-05T10:16:12Z</time>
      </trkpt>
      <trkpt lat="48.69444" lon="2.05102">
        <ele>165</ele>
        <time>2026-02-05T10:16:19Z</time>
      </trkpt>
      <trkpt lat="48.69449" lon="2.05117">
        <ele>165</ele>
        <time>2026-02-05T10:16:26Z</time>
      </trkpt>
      <trkpt lat="48.69454" lon="2.05129">
        <ele>165</ele>
        <time>2026-02-05T10:16:33Z</time>
      </trkpt>
      <trkpt lat="48.69457" lon="2.05142">
        <ele>164.9</ele>
        <time>2026-02-05T10:16:39Z</time>
      </trkpt>
      <trkpt lat="48.69459" lon="2.05157">
        <ele>164.7</ele>
        <time>2026-02-05T10:16:46Z</time>
      </trkpt>
      <trkpt lat="48.69467" lon="2.05166">
        <ele>164.8</ele>
        <time>2026-02-05T10:16:53Z</time>
      </trkpt>
      <trkpt lat="48.69472" lon="2.05179">
        <ele>165</ele>
        <time>2026-02-05T10:17:00Z</time>
      </trkpt>
      <trkpt lat="48.69478" lon="2.05191">
        <ele>165</ele>
        <time>2026-02-05T10:17:07Z</time>
      </trkpt>
      <trkpt lat="48.69484" lon="2.05202">
        <ele>164.9</ele>
        <time>2026-02-05T10:17:14Z</time>
      </trkpt>
      <trkpt lat="48.69488" lon="2.05214">
        <ele>164.6</ele>
        <time>2026-02-05T10:17:21Z</time>
      </trkpt>
      <trkpt lat="48.69489" lon="2.05228">
        <ele>164.4</ele>
        <time>2026-02-05T10:17:29Z</time>
      </trkpt>
      <trkpt lat="48.69491" lon="2.05243">
        <ele>164.3</ele>
        <time>2026-02-05T10:17:38Z</time>
      </trkpt>
      <trkpt lat="48.69497" lon="2.05254">
        <ele>164.2</ele>
        <time>2026-02-05T10:17:46Z</time>
      </trkpt>
      <trkpt lat="48.69504" lon="2.05265">
        <ele>164.5</ele>
        <time>2026-02-05T10:17:54Z</time>
      </trkpt>
      <trkpt lat="48.69508" lon="2.05278">
        <ele>164.7</ele>
        <time>2026-02-05T10:18:01Z</time>
      </trkpt>
      <trkpt lat="48.69513" lon="2.0529">
        <ele>164.3</ele>
        <time>2026-02-05T10:18:08Z</time>
      </trkpt>
      <trkpt lat="48.69517" lon="2.05303">
        <ele>164</ele>
        <time>2026-02-05T10:18:16Z</time>
      </trkpt>
      <trkpt lat="48.69523" lon="2.05314">
        <ele>164</ele>
        <time>2026-02-05T10:18:22Z</time>
      </trkpt>
      <trkpt lat="48.69529" lon="2.05326">
        <ele>164</ele>
        <time>2026-02-05T10:18:28Z</time>
      </trkpt>
      <trkpt lat="48.69536" lon="2.05336">
        <ele>164</ele>
        <time>2026-02-05T10:18:35Z</time>
      </trkpt>
      <trkpt lat="48.69544" lon="2.05347">
        <ele>163.7</ele>
        <time>2026-02-05T10:18:41Z</time>
      </trkpt>
      <trkpt lat="48.69551" lon="2.05356">
        <ele>163.3</ele>
        <time>2026-02-05T10:18:47Z</time>
      </trkpt>
      <trkpt lat="48.69559" lon="2.05364">
        <ele>162.9</ele>
        <time>2026-02-05T10:18:54Z</time>
      </trkpt>
      <trkpt lat="48.69567" lon="2.05372">
        <ele>162.6</ele>
        <time>2026-02-05T10:19:02Z</time>
      </trkpt>
      <trkpt lat="48.69576" lon="2.05374">
        <ele>162.3</ele>
        <time>2026-02-05T10:19:09Z</time>
      </trkpt>
      <trkpt lat="48.69586" lon="2.05373">
        <ele>161.9</ele>
        <time>2026-02-05T10:19:16Z</time>
      </trkpt>
      <trkpt lat="48.69597" lon="2.05374">
        <ele>161.5</ele>
        <time>2026-02-05T10:19:23Z</time>
      </trkpt>
      <trkpt lat="48.69606" lon="2.05373">
        <ele>161.2</ele>
        <time>2026-02-05T10:19:29Z</time>
      </trkpt>
      <trkpt lat="48.69615" lon="2.05374">
        <ele>160.9</ele>
        <time>2026-02-05T10:19:36Z</time>
      </trkpt>
      <trkpt lat="48.69624" lon="2.05374">
        <ele>160.5</ele>
        <time>2026-02-05T10:19:44Z</time>
      </trkpt>
      <trkpt lat="48.69634" lon="2.05376">
        <ele>160.2</ele>
        <time>2026-02-05T10:19:56Z</time>
      </trkpt>
      <trkpt lat="48.69643" lon="2.05371">
        <ele>159.9</ele>
        <time>2026-02-05T10:20:04Z</time>
      </trkpt>
      <trkpt lat="48.69652" lon="2.05365">
        <ele>159.5</ele>
        <time>2026-02-05T10:20:14Z</time>
      </trkpt>
      <trkpt lat="48.6966" lon="2.05359">
        <ele>159.3</ele>
        <time>2026-02-05T10:20:23Z</time>
      </trkpt>
      <trkpt lat="48.6967" lon="2.05358">
        <ele>159</ele>
        <time>2026-02-05T10:20:32Z</time>
      </trkpt>
      <trkpt lat="48.6968" lon="2.05357">
        <ele>158.6</ele>
        <time>2026-02-05T10:20:38Z</time>
      </trkpt>
      <trkpt lat="48.6969" lon="2.05356">
        <ele>158.2</ele>
        <time>2026-02-05T10:20:46Z</time>
      </trkpt>
      <trkpt lat="48.69699" lon="2.05353">
        <ele>157.3</ele>
        <time>2026-02-05T10:20:53Z</time>
      </trkpt>
      <trkpt lat="48.69708" lon="2.05352">
        <ele>156</ele>
        <time>2026-02-05T10:21:00Z</time>
      </trkpt>
      <trkpt lat="48.69717" lon="2.05359">
        <ele>154.7</ele>
        <time>2026-02-05T10:21:07Z</time>
      </trkpt>
      <trkpt lat="48.69724" lon="2.05368">
        <ele>153.4</ele>
        <time>2026-02-05T10:21:14Z</time>
      </trkpt>
      <trkpt lat="48.69735" lon="2.05368">
        <ele>150.9</ele>
        <time>2026-02-05T10:21:22Z</time>
      </trkpt>
      <trkpt lat="48.69743" lon="2.05377">
        <ele>148.8</ele>
        <time>2026-02-05T10:21:29Z</time>
      </trkpt>
      <trkpt lat="48.69752" lon="2.05382">
        <ele>146.3</ele>
        <time>2026-02-05T10:21:37Z</time>
      </trkpt>
      <trkpt lat="48.69758" lon="2.05394">
        <ele>144.8</ele>
        <time>2026-02-05T10:21:45Z</time>
      </trkpt>
      <trkpt lat="48.69767" lon="2.05395">
        <ele>141.7</ele>
        <time>2026-02-05T10:21:54Z</time>
      </trkpt>
      <trkpt lat="48.69774" lon="2.05405">
        <ele>140.4</ele>
        <time>2026-02-05T10:22:04Z</time>
      </trkpt>
      <trkpt lat="48.69779" lon="2.05417">
        <ele>139.6</ele>
        <time>2026-02-05T10:22:14Z</time>
      </trkpt>
      <trkpt lat="48.69788" lon="2.05421">
        <ele>136.8</ele>
        <time>2026-02-05T10:22:28Z</time>
      </trkpt>
      <trkpt lat="48.69796" lon="2.05433">
        <ele>135.1</ele>
        <time>2026-02-05T10:22:38Z</time>
      </trkpt>
      <trkpt lat="48.69803" lon="2.05443">
        <ele>133.6</ele>
        <time>2026-02-05T10:22:45Z</time>
      </trkpt>
      <trkpt lat="48.6981" lon="2.05456">
        <ele>131.7</ele>
        <time>2026-02-05T10:22:53Z</time>
      </trkpt>
      <trkpt lat="48.69813" lon="2.05472">
        <ele>131</ele>
        <time>2026-02-05T10:23:02Z</time>
      </trkpt>
      <trkpt lat="48.69804" lon="2.05479">
        <ele>133.7</ele>
        <time>2026-02-05T10:23:08Z</time>
      </trkpt>
      <trkpt lat="48.69814" lon="2.05485">
        <ele>131.1</ele>
        <time>2026-02-05T10:23:25Z</time>
      </trkpt>
      <trkpt lat="48.69819" lon="2.05497">
        <ele>130.1</ele>
        <time>2026-02-05T10:23:37Z</time>
      </trkpt>
      <trkpt lat="48.69827" lon="2.05505">
        <ele>127.8</ele>
        <time>2026-02-05T10:23:48Z</time>
      </trkpt>
      <trkpt lat="48.69831" lon="2.05518">
        <ele>126.7</ele>
        <time>2026-02-05T10:23:56Z</time>
      </trkpt>
      <trkpt lat="48.6984" lon="2.05527">
        <ele>124.5</ele>
        <time>2026-02-05T10:24:04Z</time>
      </trkpt>
      <trkpt lat="48.69849" lon="2.05535">
        <ele>123</ele>
        <time>2026-02-05T10:24:11Z</time>
      </trkpt>
      <trkpt lat="48.69853" lon="2.05548">
        <ele>122.6</ele>
        <time>2026-02-05T10:24:19Z</time>
      </trkpt>
      <trkpt lat="48.69856" lon="2.05561">
        <ele>122.2</ele>
        <time>2026-02-05T10:24:27Z</time>
      </trkpt>
      <trkpt lat="48.69863" lon="2.0557">
        <ele>120.6</ele>
        <time>2026-02-05T10:24:34Z</time>
      </trkpt>
      <trkpt lat="48.69871" lon="2.0558">
        <ele>119.6</ele>
        <time>2026-02-05T10:24:41Z</time>
      </trkpt>
      <trkpt lat="48.69881" lon="2.05583">
        <ele>118.2</ele>
        <time>2026-02-05T10:24:50Z</time>
      </trkpt>
      <trkpt lat="48.6989" lon="2.0558">
        <ele>116.8</ele>
        <time>2026-02-05T10:24:57Z</time>
      </trkpt>
      <trkpt lat="48.699" lon="2.05581">
        <ele>115.8</ele>
        <time>2026-02-05T10:25:05Z</time>
      </trkpt>
      <trkpt lat="48.69909" lon="2.05582">
        <ele>114.8</ele>
        <time>2026-02-05T10:25:11Z</time>
      </trkpt>
      <trkpt lat="48.69919" lon="2.05581">
        <ele>113.6</ele>
        <time>2026-02-05T10:25:18Z</time>
      </trkpt>
      <trkpt lat="48.69929" lon="2.05583">
        <ele>112.7</ele>
        <time>2026-02-05T10:25:25Z</time>
      </trkpt>
      <trkpt lat="48.69938" lon="2.05584">
        <ele>111.7</ele>
        <time>2026-02-05T10:25:31Z</time>
      </trkpt>
      <trkpt lat="48.69948" lon="2.05584">
        <ele>110.6</ele>
        <time>2026-02-05T10:25:37Z</time>
      </trkpt>
      <trkpt lat="48.69958" lon="2.05586">
        <ele>109.5</ele>
        <time>2026-02-05T10:25:44Z</time>
      </trkpt>
      <trkpt lat="48.69968" lon="2.05589">
        <ele>108.3</ele>
        <time>2026-02-05T10:25:51Z</time>
      </trkpt>
      <trkpt lat="48.69978" lon="2.05591">
        <ele>106.9</ele>
        <time>2026-02-05T10:25:58Z</time>
      </trkpt>
      <trkpt lat="48.69987" lon="2.05595">
        <ele>105.4</ele>
        <time>2026-02-05T10:26:06Z</time>
      </trkpt>
      <trkpt lat="48.69997" lon="2.05597">
        <ele>103.9</ele>
        <time>2026-02-05T10:26:13Z</time>
      </trkpt>
      <trkpt lat="48.70007" lon="2.056">
        <ele>102.7</ele>
        <time>2026-02-05T10:26:20Z</time>
      </trkpt>
      <trkpt lat="48.70017" lon="2.05602">
        <ele>101.5</ele>
        <time>2026-02-05T10:26:27Z</time>
      </trkpt>
      <trkpt lat="48.70025" lon="2.05605">
        <ele>100.5</ele>
        <time>2026-02-05T10:26:33Z</time>
      </trkpt>
      <trkpt lat="48.70036" lon="2.05608">
        <ele>99.2</ele>
        <time>2026-02-05T10:26:41Z</time>
      </trkpt>
      <trkpt lat="48.70044" lon="2.05611">
        <ele>98.2</ele>
        <time>2026-02-05T10:26:48Z</time>
      </trkpt>
      <trkpt lat="48.70053" lon="2.05615">
        <ele>97.1</ele>
        <time>2026-02-05T10:26:55Z</time>
      </trkpt>
      <trkpt lat="48.70063" lon="2.05619">
        <ele>96.2</ele>
        <time>2026-02-05T10:27:02Z</time>
      </trkpt>
      <trkpt lat="48.70072" lon="2.05624">
        <ele>95.4</ele>
        <time>2026-02-05T10:27:09Z</time>
      </trkpt>
      <trkpt lat="48.70079" lon="2.05632">
        <ele>94.6</ele>
        <time>2026-02-05T10:27:16Z</time>
      </trkpt>
      <trkpt lat="48.70086" lon="2.05642">
        <ele>93.7</ele>
        <time>2026-02-05T10:27:23Z</time>
      </trkpt>
      <trkpt lat="48.70095" lon="2.05645">
        <ele>92.7</ele>
        <time>2026-02-05T10:27:30Z</time>
      </trkpt>
      <trkpt lat="48.70104" lon="2.05644">
        <ele>91.7</ele>
        <time>2026-02-05T10:27:37Z</time>
      </trkpt>
      <trkpt lat="48.70113" lon="2.05639">
        <ele>90.9</ele>
        <time>2026-02-05T10:27:44Z</time>
      </trkpt>
      <trkpt lat="48.70122" lon="2.05634">
        <ele>90.2</ele>
        <time>2026-02-05T10:27:51Z</time>
      </trkpt>
      <trkpt lat="48.70131" lon="2.05631">
        <ele>89.4</ele>
        <time>2026-02-05T10:27:58Z</time>
      </trkpt>
      <trkpt lat="48.70139" lon="2.05626">
        <ele>88.5</ele>
        <time>2026-02-05T10:28:05Z</time>
      </trkpt>
      <trkpt lat="48.70149" lon="2.05623">
        <ele>87.9</ele>
        <time>2026-02-05T10:28:13Z</time>
      </trkpt>
      <trkpt lat="48.70159" lon="2.05618">
        <ele>87.4</ele>
        <time>2026-02-05T10:28:21Z</time>
      </trkpt>
      <trkpt lat="48.70168" lon="2.05612">
        <ele>86.9</ele>
        <time>2026-02-05T10:28:28Z</time>
      </trkpt>
      <trkpt lat="48.70177" lon="2.05607">
        <ele>85.9</ele>
        <time>2026-02-05T10:28:38Z</time>
      </trkpt>
      <trkpt lat="48.70184" lon="2.05599">
        <ele>85.1</ele>
        <time>2026-02-05T10:28:51Z</time>
      </trkpt>
      <trkpt lat="48.70192" lon="2.05591">
        <ele>84.2</ele>
        <time>2026-02-05T10:29:00Z</time>
      </trkpt>
      <trkpt lat="48.702" lon="2.05582">
        <ele>83.6</ele>
        <time>2026-02-05T10:29:08Z</time>
      </trkpt>
      <trkpt lat="48.70208" lon="2.05573">
        <ele>82.8</ele>
        <time>2026-02-05T10:29:16Z</time>
      </trkpt>
      <trkpt lat="48.70217" lon="2.05572">
        <ele>82</ele>
        <time>2026-02-05T10:29:24Z</time>
      </trkpt>
      <trkpt lat="48.70226" lon="2.05575">
        <ele>81.5</ele>
        <time>2026-02-05T10:29:31Z</time>
      </trkpt>
      <trkpt lat="48.70236" lon="2.05569">
        <ele>81</ele>
        <time>2026-02-05T10:29:40Z</time>
      </trkpt>
      <trkpt lat="48.7024" lon="2.05556">
        <ele>80.4</ele>
        <time>2026-02-05T10:29:47Z</time>
      </trkpt>
      <trkpt lat="48.70249" lon="2.05551">
        <ele>80</ele>
        <time>2026-02-05T10:29:55Z</time>
      </trkpt>
      <trkpt lat="48.70259" lon="2.05551">
        <ele>79.7</ele>
        <time>2026-02-05T10:30:02Z</time>
      </trkpt>
      <trkpt lat="48.70268" lon="2.05552">
        <ele>79.3</ele>
        <time>2026-02-05T10:30:09Z</time>
      </trkpt>
      <trkpt lat="48.70278" lon="2.05553">
        <ele>79</ele>
        <time>2026-02-05T10:30:16Z</time>
      </trkpt>
      <trkpt lat="48.70288" lon="2.05554">
        <ele>78.6</ele>
        <time>2026-02-05T10:30:23Z</time>
      </trkpt>
      <trkpt lat="48.70298" lon="2.05556">
        <ele>78.3</ele>
        <time>2026-02-05T10:30:30Z</time>
      </trkpt>
      <trkpt lat="48.70308" lon="2.05557">
        <ele>77.9</ele>
        <time>2026-02-05T10:30:37Z</time>
      </trkpt>
      <trkpt lat="48.70318" lon="2.05558">
        <ele>77.5</ele>
        <time>2026-02-05T10:30:44Z</time>
      </trkpt>
      <trkpt lat="48.70328" lon="2.0556">
        <ele>77.2</ele>
        <time>2026-02-05T10:30:51Z</time>
      </trkpt>
      <trkpt lat="48.70338" lon="2.05562">
        <ele>77</ele>
        <time>2026-02-05T10:30:58Z</time>
      </trkpt>
      <trkpt lat="48.70347" lon="2.05562">
        <ele>77</ele>
        <time>2026-02-05T10:31:05Z</time>
      </trkpt>
      <trkpt lat="48.70357" lon="2.05563">
        <ele>77</ele>
        <time>2026-02-05T10:31:12Z</time>
      </trkpt>
      <trkpt lat="48.70366" lon="2.05564">
        <ele>76.8</ele>
        <time>2026-02-05T10:31:19Z</time>
      </trkpt>
      <trkpt lat="48.70376" lon="2.05565">
        <ele>76.5</ele>
        <time>2026-02-05T10:31:26Z</time>
      </trkpt>
      <trkpt lat="48.70386" lon="2.05564">
        <ele>76.1</ele>
        <time>2026-02-05T10:31:34Z</time>
      </trkpt>
      <trkpt lat="48.70395" lon="2.05563">
        <ele>75.6</ele>
        <time>2026-02-05T10:31:41Z</time>
      </trkpt>
      <trkpt lat="48.70405" lon="2.05562">
        <ele>75</ele>
        <time>2026-02-05T10:31:48Z</time>
      </trkpt>
      <trkpt lat="48.70412" lon="2.05552">
        <ele>74.4</ele>
        <time>2026-02-05T10:31:57Z</time>
      </trkpt>
      <trkpt lat="48.70421" lon="2.05552">
        <ele>74.4</ele>
        <time>2026-02-05T10:32:04Z</time>
      </trkpt>
      <trkpt lat="48.70431" lon="2.05551">
        <ele>75.1</ele>
        <time>2026-02-05T10:32:12Z</time>
      </trkpt>
      <trkpt lat="48.70423" lon="2.05545">
        <ele>74.8</ele>
        <time>2026-02-05T10:32:20Z</time>
      </trkpt>
      <trkpt lat="48.70428" lon="2.05532">
        <ele>75.3</ele>
        <time>2026-02-05T10:32:27Z</time>
      </trkpt>
      <trkpt lat="48.70432" lon="2.05519">
        <ele>75.5</ele>
        <time>2026-02-05T10:32:34Z</time>
      </trkpt>
      <trkpt lat="48.70433" lon="2.05505">
        <ele>75.6</ele>
        <time>2026-02-05T10:32:42Z</time>
      </trkpt>
      <trkpt lat="48.70438" lon="2.05493">
        <ele>75.4</ele>
        <time>2026-02-05T10:32:59Z</time>
      </trkpt>
      <trkpt lat="48.70443" lon="2.05481">
        <ele>74.6</ele>
        <time>2026-02-05T10:33:06Z</time>
      </trkpt>
      <trkpt lat="48.70448" lon="2.05468">
        <ele>74.4</ele>
        <time>2026-02-05T10:33:13Z</time>
      </trkpt>
      <trkpt lat="48.70454" lon="2.05456">
        <ele>75.3</ele>
        <time>2026-02-05T10:33:20Z</time>
      </trkpt>
      <trkpt lat="48.7046" lon="2.05443">
        <ele>76.1</ele>
        <time>2026-02-05T10:33:27Z</time>
      </trkpt>
      <trkpt lat="48.70465" lon="2.05431">
        <ele>75.8</ele>
        <time>2026-02-05T10:33:33Z</time>
      </trkpt>
      <trkpt lat="48.70471" lon="2.05419">
        <ele>75.1</ele>
        <time>2026-02-05T10:33:40Z</time>
      </trkpt>
      <trkpt lat="48.70476" lon="2.05407">
        <ele>74.9</ele>
        <time>2026-02-05T10:33:46Z</time>
      </trkpt>
      <trkpt lat="48.7048" lon="2.05395">
        <ele>75</ele>
        <time>2026-02-05T10:33:52Z</time>
      </trkpt>
      <trkpt lat="48.70486" lon="2.05383">
        <ele>75.5</ele>
        <time>2026-02-05T10:33:59Z</time>
      </trkpt>
      <trkpt lat="48.70493" lon="2.05372">
        <ele>75.9</ele>
        <time>2026-02-05T10:34:06Z</time>
      </trkpt>
      <trkpt lat="48.70499" lon="2.05361">
        <ele>75.9</ele>
        <time>2026-02-05T10:34:12Z</time>
      </trkpt>
      <trkpt lat="48.70505" lon="2.05349">
        <ele>75.4</ele>
        <time>2026-02-05T10:34:17Z</time>
      </trkpt>
      <trkpt lat="48.7051" lon="2.05336">
        <ele>75.2</ele>
        <time>2026-02-05T10:34:23Z</time>
      </trkpt>
      <trkpt lat="48.70513" lon="2.05323">
        <ele>75.4</ele>
        <time>2026-02-05T10:34:29Z</time>
      </trkpt>
      <trkpt lat="48.70513" lon="2.05308">
        <ele>75.5</ele>
        <time>2026-02-05T10:34:35Z</time>
      </trkpt>
      <trkpt lat="48.70514" lon="2.05294">
        <ele>75.5</ele>
        <time>2026-02-05T10:34:41Z</time>
      </trkpt>
      <trkpt lat="48.70516" lon="2.05279">
        <ele>75.6</ele>
        <time>2026-02-05T10:34:48Z</time>
      </trkpt>
      <trkpt lat="48.70523" lon="2.05269">
        <ele>75.3</ele>
        <time>2026-02-05T10:34:55Z</time>
      </trkpt>
      <trkpt lat="48.7053" lon="2.05259">
        <ele>74.8</ele>
        <time>2026-02-05T10:35:02Z</time>
      </trkpt>
      <trkpt lat="48.70536" lon="2.05247">
        <ele>74.9</ele>
        <time>2026-02-05T10:35:09Z</time>
      </trkpt>
      <trkpt lat="48.70541" lon="2.05235">
        <ele>75.7</ele>
        <time>2026-02-05T10:35:14Z</time>
      </trkpt>
      <trkpt lat="48.70547" lon="2.05223">
        <ele>76.4</ele>
        <time>2026-02-05T10:35:21Z</time>
      </trkpt>
      <trkpt lat="48.70555" lon="2.05214">
        <ele>76.7</ele>
        <time>2026-02-05T10:35:28Z</time>
      </trkpt>
      <trkpt lat="48.70564" lon="2.0521">
        <ele>77</ele>
        <time>2026-02-05T10:35:35Z</time>
      </trkpt>
      <trkpt lat="48.70564" lon="2.05196">
        <ele>76.6</ele>
        <time>2026-02-05T10:35:43Z</time>
      </trkpt>
      <trkpt lat="48.70563" lon="2.05183">
        <ele>76.3</ele>
        <time>2026-02-05T10:35:50Z</time>
      </trkpt>
      <trkpt lat="48.70567" lon="2.05169">
        <ele>76.1</ele>
        <time>2026-02-05T10:35:57Z</time>
      </trkpt>
      <trkpt lat="48.70575" lon="2.05162">
        <ele>76.1</ele>
        <time>2026-02-05T10:36:03Z</time>
      </trkpt>
      <trkpt lat="48.70585" lon="2.05158">
        <ele>76.4</ele>
        <time>2026-02-05T10:36:09Z</time>
      </trkpt>
      <trkpt lat="48.70594" lon="2.0516">
        <ele>76.8</ele>
        <time>2026-02-05T10:36:15Z</time>
      </trkpt>
      <trkpt lat="48.70604" lon="2.05159">
        <ele>77.3</ele>
        <time>2026-02-05T10:36:21Z</time>
      </trkpt>
      <trkpt lat="48.7061" lon="2.05147">
        <ele>77.3</ele>
        <time>2026-02-05T10:36:28Z</time>
      </trkpt>
      <trkpt lat="48.7061" lon="2.05131">
        <ele>77</ele>
        <time>2026-02-05T10:36:35Z</time>
      </trkpt>
      <trkpt lat="48.7061" lon="2.05117">
        <ele>77</ele>
        <time>2026-02-05T10:36:41Z</time>
      </trkpt>
      <trkpt lat="48.70611" lon="2.05103">
        <ele>77</ele>
        <time>2026-02-05T10:36:48Z</time>
      </trkpt>
      <trkpt lat="48.70613" lon="2.05088">
        <ele>77.2</ele>
        <time>2026-02-05T10:36:55Z</time>
      </trkpt>
      <trkpt lat="48.70615" lon="2.05073">
        <ele>77.4</ele>
        <time>2026-02-05T10:37:02Z</time>
      </trkpt>
      <trkpt lat="48.70618" lon="2.05057">
        <ele>77.5</ele>
        <time>2026-02-05T10:37:08Z</time>
      </trkpt>
      <trkpt lat="48.70621" lon="2.05044">
        <ele>77.6</ele>
        <time>2026-02-05T10:37:14Z</time>
      </trkpt>
      <trkpt lat="48.70624" lon="2.05031">
        <ele>77.5</ele>
        <time>2026-02-05T10:37:20Z</time>
      </trkpt>
      <trkpt lat="48.70627" lon="2.05017">
        <ele>77.6</ele>
        <time>2026-02-05T10:37:26Z</time>
      </trkpt>
      <trkpt lat="48.70629" lon="2.05002">
        <ele>77.6</ele>
        <time>2026-02-05T10:37:33Z</time>
      </trkpt>
      <trkpt lat="48.70632" lon="2.04988">
        <ele>77.1</ele>
        <time>2026-02-05T10:37:39Z</time>
      </trkpt>
      <trkpt lat="48.70635" lon="2.04974">
        <ele>76.3</ele>
        <time>2026-02-05T10:37:45Z</time>
      </trkpt>
      <trkpt lat="48.70637" lon="2.04959">
        <ele>76.5</ele>
        <time>2026-02-05T10:37:52Z</time>
      </trkpt>
      <trkpt lat="48.70638" lon="2.04945">
        <ele>77</ele>
        <time>2026-02-05T10:37:58Z</time>
      </trkpt>
      <trkpt lat="48.70638" lon="2.0493">
        <ele>77</ele>
        <time>2026-02-05T10:38:05Z</time>
      </trkpt>
      <trkpt lat="48.70636" lon="2.04916">
        <ele>76.9</ele>
        <time>2026-02-05T10:38:16Z</time>
      </trkpt>
      <trkpt lat="48.70638" lon="2.04902">
        <ele>77.5</ele>
        <time>2026-02-05T10:38:23Z</time>
      </trkpt>
      <trkpt lat="48.70641" lon="2.04888">
        <ele>78.1</ele>
        <time>2026-02-05T10:38:30Z</time>
      </trkpt>
      <trkpt lat="48.70643" lon="2.04873">
        <ele>78.2</ele>
        <time>2026-02-05T10:38:37Z</time>
      </trkpt>
      <trkpt lat="48.70647" lon="2.04857">
        <ele>78.5</ele>
        <time>2026-02-05T10:38:44Z</time>
      </trkpt>
      <trkpt lat="48.70651" lon="2.04845">
        <ele>78.6</ele>
        <time>2026-02-05T10:38:50Z</time>
      </trkpt>
      <trkpt lat="48.70653" lon="2.04831">
        <ele>78.5</ele>
        <time>2026-02-05T10:38:56Z</time>
      </trkpt>
      <trkpt lat="48.70656" lon="2.04817">
        <ele>78.6</ele>
        <time>2026-02-05T10:39:03Z</time>
      </trkpt>
      <trkpt lat="48.70656" lon="2.04802">
        <ele>78.6</ele>
        <time>2026-02-05T10:39:10Z</time>
      </trkpt>
      <trkpt lat="48.70655" lon="2.04787">
        <ele>78.6</ele>
        <time>2026-02-05T10:39:17Z</time>
      </trkpt>
      <trkpt lat="48.70654" lon="2.04772">
        <ele>78.6</ele>
        <time>2026-02-05T10:39:24Z</time>
      </trkpt>
      <trkpt lat="48.70654" lon="2.04756">
        <ele>78.5</ele>
        <time>2026-02-05T10:39:31Z</time>
      </trkpt>
      <trkpt lat="48.70653" lon="2.04741">
        <ele>78.7</ele>
        <time>2026-02-05T10:39:38Z</time>
      </trkpt>
      <trkpt lat="48.70651" lon="2.04727">
        <ele>78.9</ele>
        <time>2026-02-05T10:39:44Z</time>
      </trkpt>
      <trkpt lat="48.70649" lon="2.04712">
        <ele>79</ele>
        <time>2026-02-05T10:39:51Z</time>
      </trkpt>
      <trkpt lat="48.70647" lon="2.04698">
        <ele>79</ele>
        <time>2026-02-05T10:39:58Z</time>
      </trkpt>
      <trkpt lat="48.70646" lon="2.04683">
        <ele>79</ele>
        <time>2026-02-05T10:40:05Z</time>
      </trkpt>
      <trkpt lat="48.70647" lon="2.04669">
        <ele>79</ele>
        <time>2026-02-05T10:40:12Z</time>
      </trkpt>
      <trkpt lat="48.70646" lon="2.04655">
        <ele>79</ele>
        <time>2026-02-05T10:40:19Z</time>
      </trkpt>
      <trkpt lat="48.7065" lon="2.04641">
        <ele>79</ele>
        <time>2026-02-05T10:40:26Z</time>
      </trkpt>
      <trkpt lat="48.70652" lon="2.04626">
        <ele>79</ele>
        <time>2026-02-05T10:40:33Z</time>
      </trkpt>
      <trkpt lat="48.70655" lon="2.04611">
        <ele>79.2</ele>
        <time>2026-02-05T10:40:40Z</time>
      </trkpt>
      <trkpt lat="48.70656" lon="2.04597">
        <ele>79.4</ele>
        <time>2026-02-05T10:40:46Z</time>
      </trkpt>
      <trkpt lat="48.70657" lon="2.04582">
        <ele>79.6</ele>
        <time>2026-02-05T10:40:53Z</time>
      </trkpt>
      <trkpt lat="48.70658" lon="2.04568">
        <ele>78.8</ele>
        <time>2026-02-05T10:41:00Z</time>
      </trkpt>
      <trkpt lat="48.70659" lon="2.04554">
        <ele>78</ele>
        <time>2026-02-05T10:41:06Z</time>
      </trkpt>
      <trkpt lat="48.70662" lon="2.04539">
        <ele>78.5</ele>
        <time>2026-02-05T10:41:12Z</time>
      </trkpt>
      <trkpt lat="48.70663" lon="2.04524">
        <ele>78.9</ele>
        <time>2026-02-05T10:41:18Z</time>
      </trkpt>
      <trkpt lat="48.70665" lon="2.04511">
        <ele>78.9</ele>
        <time>2026-02-05T10:41:24Z</time>
      </trkpt>
      <trkpt lat="48.70665" lon="2.04496">
        <ele>78.9</ele>
        <time>2026-02-05T10:41:31Z</time>
      </trkpt>
      <trkpt lat="48.70664" lon="2.04482">
        <ele>78.8</ele>
        <time>2026-02-05T10:41:38Z</time>
      </trkpt>
      <trkpt lat="48.70665" lon="2.04466">
        <ele>78.7</ele>
        <time>2026-02-05T10:41:45Z</time>
      </trkpt>
      <trkpt lat="48.70666" lon="2.04452">
        <ele>78.2</ele>
        <time>2026-02-05T10:41:52Z</time>
      </trkpt>
      <trkpt lat="48.70669" lon="2.04436">
        <ele>78.1</ele>
        <time>2026-02-05T10:41:59Z</time>
      </trkpt>
      <trkpt lat="48.70671" lon="2.04422">
        <ele>78.2</ele>
        <time>2026-02-05T10:42:06Z</time>
      </trkpt>
      <trkpt lat="48.70674" lon="2.04408">
        <ele>78.3</ele>
        <time>2026-02-05T10:42:13Z</time>
      </trkpt>
      <trkpt lat="48.70676" lon="2.04394">
        <ele>78.3</ele>
        <time>2026-02-05T10:42:39Z</time>
      </trkpt>
      <trkpt lat="48.70678" lon="2.0438">
        <ele>78.4</ele>
        <time>2026-02-05T10:42:52Z</time>
      </trkpt>
      <trkpt lat="48.70678" lon="2.04366">
        <ele>78.4</ele>
        <time>2026-02-05T10:43:01Z</time>
      </trkpt>
      <trkpt lat="48.70678" lon="2.04351">
        <ele>78.6</ele>
        <time>2026-02-05T10:43:10Z</time>
      </trkpt>
      <trkpt lat="48.70678" lon="2.04336">
        <ele>78.8</ele>
        <time>2026-02-05T10:43:18Z</time>
      </trkpt>
      <trkpt lat="48.70677" lon="2.04322">
        <ele>78.8</ele>
        <time>2026-02-05T10:43:25Z</time>
      </trkpt>
      <trkpt lat="48.70676" lon="2.04308">
        <ele>78.7</ele>
        <time>2026-02-05T10:43:33Z</time>
      </trkpt>
      <trkpt lat="48.70674" lon="2.04294">
        <ele>78.4</ele>
        <time>2026-02-05T10:43:40Z</time>
      </trkpt>
      <trkpt lat="48.70674" lon="2.04279">
        <ele>78.3</ele>
        <time>2026-02-05T10:43:48Z</time>
      </trkpt>
      <trkpt lat="48.70675" lon="2.04265">
        <ele>78.3</ele>
        <time>2026-02-05T10:43:56Z</time>
      </trkpt>
      <trkpt lat="48.70676" lon="2.04251">
        <ele>78.3</ele>
        <time>2026-02-05T10:44:04Z</time>
      </trkpt>
      <trkpt lat="48.70677" lon="2.04236">
        <ele>78.4</ele>
        <time>2026-02-05T10:44:12Z</time>
      </trkpt>
      <trkpt lat="48.70677" lon="2.04223">
        <ele>78.4</ele>
        <time>2026-02-05T10:44:20Z</time>
      </trkpt>
      <trkpt lat="48.70677" lon="2.04208">
        <ele>78.4</ele>
        <time>2026-02-05T10:44:28Z</time>
      </trkpt>
      <trkpt lat="48.70677" lon="2.04193">
        <ele>78.4</ele>
        <time>2026-02-05T10:44:36Z</time>
      </trkpt>
      <trkpt lat="48.70677" lon="2.04179">
        <ele>78.6</ele>
        <time>2026-02-05T10:44:43Z</time>
      </trkpt>
      <trkpt lat="48.70676" lon="2.04165">
        <ele>78.7</ele>
        <time>2026-02-05T10:44:50Z</time>
      </trkpt>
      <trkpt lat="48.70676" lon="2.0415">
        <ele>79.1</ele>
        <time>2026-02-05T10:44:58Z</time>
      </trkpt>
      <trkpt lat="48.70667" lon="2.04149">
        <ele>78.6</ele>
        <time>2026-02-05T10:45:07Z</time>
      </trkpt>
      <trkpt lat="48.70658" lon="2.04154">
        <ele>78.3</ele>
        <time>2026-02-05T10:45:16Z</time>
      </trkpt>
    </trkseg>
  </trk>
</gpx>